Data for 09/26/2010

Time Sea-Level Adjusted Pressure Absolute Pressure Temperature Relative Humidity Dew Point Precipitation   
(mb) (inHg) (mb) (inHg) (C) (F) (%) (C) (F) (mm) (in)
00:01 1024 30.24 853 25.19 12.1 53.8 56 3.8 38.8 12.4 0.488
00:02 1024 30.24 853 25.19 12.1 53.7 56 3.7 38.6 12.33 0.485
00:03 1024 30.24 853 25.19 12.2 53.9 56 3.7 38.7 12.51 0.493
00:04 1024 30.24 853 25.19 12.2 53.9 55 3.5 38.3 12.48 0.491
00:05 1024 30.24 853 25.19 12.3 54.1 56 3.7 38.7 12.49 0.492
00:06 1024 30.24 853 25.19 12.3 54.1 54 3.3 38 12.53 0.493
00:07 1024 30.24 853 25.19 12.6 54.7 53 3.4 38 12.77 0.503
00:08 1024 30.24 853 25.19 12.8 55 53 3.4 38.1 13.04 0.513
00:09 1024 30.24 853 25.19 13.1 55.6 52 3.5 38.3 13.37 0.526
00:10 1024 30.24 853 25.19 13.2 55.8 52 3.7 38.7 13.41 0.528
00:11 1024 30.24 853 25.19 13.2 55.7 53 3.8 38.9 13.34 0.525
00:12 1024 30.24 853 25.19 13 55.3 55 4.1 39.5 13.2 0.52
00:13 1024 30.24 853 25.19 12.6 54.8 54 3.7 38.7 13.01 0.512
00:14 1024 30.24 853 25.19 12.7 54.8 54 3.6 38.5 13.04 0.513
00:15 1024 30.24 853 25.19 12.7 54.9 53 3.4 38.1 13.13 0.517
00:16 1024 30.24 853 25.19 12.8 55.1 53 3.6 38.5 13.19 0.519
00:17 1024 30.24 853 25.19 12.8 55 54 3.8 38.9 13.14 0.517
00:18 1024 30.24 853 25.19 12.5 54.5 56 4 39.2 12.91 0.508
00:19 1024 30.24 853 25.19 12.2 53.9 57 4 39.3 12.54 0.494
00:20 1024 30.24 853 25.19 11.8 53.2 57 3.7 38.6 12.1 0.476
00:21 1024 30.24 853 25.19 11.6 52.8 58 3.7 38.7 11.93 0.47
00:22 1024 30.24 853 25.19 11.4 52.5 60 3.9 38.9 11.72 0.461
00:23 1024 30.24 853 25.19 11 51.9 60 3.7 38.6 11.45 0.451
00:24 1024 30.24 853 25.19 10.9 51.6 60 3.6 38.4 11.23 0.442
00:25 1024 30.24 853 25.19 10.8 51.5 60 3.5 38.3 11.24 0.443
00:26 1024 30.24 853 25.19 10.7 51.3 62 3.8 38.8 11.09 0.437
00:27 1024 30.24 853 25.19 10.5 50.9 63 3.8 38.8 10.86 0.428
00:28 1024 30.24 853 25.19 10.4 50.7 63 3.8 38.8 10.75 0.423
00:29 1024 30.24 853 25.19 10.4 50.7 63 3.8 38.8 10.69 0.421
00:30 1024 30.24 853 25.19 10.4 50.7 63 3.6 38.6 10.73 0.422
00:31 1024 30.24 853 25.19 10.6 51 62 3.7 38.6 10.83 0.426
00:32 1024 30.24 853 25.19 10.7 51.3 61 3.6 38.4 10.96 0.431
00:33 1024 30.24 853 25.19 10.9 51.6 60 3.3 38 11.11 0.437
00:34 1024 30.24 853 25.19 11.3 52.4 57 3.2 37.7 11.58 0.456
00:35 1024 30.24 853 25.19 11.8 53.3 55 3.2 37.7 12.04 0.474
00:36 1024 30.24 853 25.19 12.2 53.9 55 3.4 38.1 12.33 0.485
00:37 1024 30.24 853 25.19 12.2 54 55 3.6 38.4 12.37 0.487
00:38 1024 30.24 853 25.19 12.1 53.8 56 3.6 38.5 12.28 0.483
00:39 1024 30.24 853 25.19 12.1 53.8 54 3.2 37.7 12.37 0.487
00:40 1024 30.24 853 25.19 12.6 54.6 52 3 37.4 12.84 0.506
00:41 1024 30.24 853 25.19 13.1 55.5 50 2.8 37.1 13.31 0.524
00:42 1024 30.24 853 25.19 13.5 56.3 48 2.9 37.3 13.65 0.537
00:43 1024 30.24 853 25.19 13.8 56.9 47 2.8 37 13.92 0.548
00:44 1024 30.24 853 25.19 14 57.1 49 3.6 38.4 14.03 0.552
00:45 1024 30.24 853 25.19 13.4 56.1 52 3.8 38.9 13.55 0.533
00:46 1024 30.24 853 25.19 12.4 54.4 56 4 39.1 12.69 0.5
00:47 1024 30.24 853 25.19 11.5 52.8 59 3.8 38.9 11.78 0.464
00:48 1024 30.24 853 25.19 11.1 52 58 3.3 37.9 11.4 0.449
00:49 1024 30.24 853 25.19 11.3 52.4 57 3.1 37.6 11.59 0.456
00:50 1024 30.24 853 25.19 11.7 53 56 3.3 37.9 11.84 0.466
00:51 1024 30.24 853 25.19 11.8 53.2 57 3.7 38.6 11.93 0.47
00:52 1024 30.24 853 25.19 11.3 52.3 59 3.7 38.7 11.55 0.455
00:53 1024 30.24 853 25.19 10.9 51.5 61 3.6 38.5 11.11 0.437
00:54 1024 30.24 853 25.19 10.6 51 62 3.6 38.5 10.89 0.429
00:55 1024 30.24 853 25.19 10.3 50.5 63 3.6 38.6 10.59 0.417
00:56 1024 30.24 853 25.19 9.9 49.9 64 3.5 38.3 10.27 0.404
00:57 1024 30.24 853 25.19 9.9 49.7 64 3.4 38.1 10.19 0.401
00:58 1024 30.24 853 25.19 9.9 49.9 64 3.5 38.2 10.23 0.403
00:59 1024 30.24 853 25.19 9.8 49.7 65 3.6 38.5 10.08 0.397
01:00 1024 30.24 853 25.19 9.4 49 66 3.5 38.3 9.76 0.384
01:01 1024 30.24 853 25.19 9.2 48.6 67 3.5 38.2 9.55 0.376
01:02 1024 30.24 853 25.19 9.1 48.3 68 3.5 38.3 9.41 0.37
01:03 1024 30.24 853 25.19 8.9 48 68 3.4 38.2 9.32 0.367
01:04 1024 30.24 853 25.19 8.9 48 68 3.3 37.9 9.25 0.364
01:05 1024 30.24 853 25.19 9 48.2 67 3.2 37.7 9.42 0.371
01:06 1024 30.24 853 25.19 9.2 48.5 66 3.2 37.7 9.52 0.375
01:07 1024 30.24 853 25.19 9.4 48.9 65 3.3 37.9 9.65 0.38
01:08 1024 30.24 853 25.19 9.5 49.1 65 3.2 37.8 9.82 0.387
01:09 1024 30.24 853 25.19 9.6 49.4 64 3.2 37.7 9.91 0.39
01:10 1024 30.24 853 25.19 9.9 49.7 63 3.2 37.8 10.02 0.394
01:11 1024 30.24 853 25.19 10 50 62 3.1 37.6 10.19 0.401
01:12 1024 30.24 853 25.19 10.2 50.4 61 3 37.4 10.37 0.408
01:13 1023 30.21 853 25.19 10.5 50.8 61 3.2 37.7 10.57 0.416
01:14 1023 30.21 853 25.19 10.5 50.9 61 3.3 37.9 10.67 0.42
01:15 1023 30.21 853 25.19 10.5 50.8 61 3.3 37.9 10.66 0.42
01:16 1023 30.21 853 25.19 10.4 50.7 61 3.3 37.9 10.59 0.417
01:17 1023 30.21 853 25.19 10.4 50.7 61 3.2 37.8 10.62 0.418
01:18 1023 30.21 853 25.19 10.4 50.7 61 3.3 37.9 10.63 0.419
01:19 1023 30.21 853 25.19 10.5 50.9 60 3.1 37.5 10.67 0.42
01:20 1023 30.21 853 25.19 10.6 51 60 3.3 37.9 10.77 0.424
01:21 1023 30.21 853 25.19 10.5 50.8 61 3.2 37.8 10.64 0.419
01:22 1023 30.21 853 25.19 10.4 50.6 60 3.1 37.6 10.57 0.416
01:23 1023 30.21 853 25.19 10.5 50.8 60 3 37.4 10.66 0.42
01:24 1023 30.21 853 25.19 10.7 51.2 59 3.1 37.5 10.89 0.429
01:25 1023 30.21 853 25.19 10.8 51.4 59 3.1 37.5 11 0.433
01:26 1023 30.21 853 25.19 11 51.7 59 3.2 37.8 11.18 0.44
01:27 1023 30.21 853 25.19 11 51.8 59 3.2 37.8 11.25 0.443
01:28 1023 30.21 853 25.19 11 51.8 59 3.3 37.9 11.28 0.444
01:29 1023 30.21 853 25.19 11 51.7 59 3.3 37.9 11.24 0.443
01:30 1023 30.21 853 25.19 10.9 51.6 59 3.3 37.9 11.24 0.443
01:31 1023 30.21 853 25.19 10.9 51.7 58 3 37.5 11.24 0.443
01:32 1023 30.21 853 25.19 11.1 52 58 3.3 38 11.37 0.448
01:33 1023 30.21 853 25.19 10.9 51.6 61 3.6 38.5 11.14 0.439
01:34 1023 30.21 853 25.19 10.5 50.8 62 3.5 38.3 10.78 0.424
01:35 1023 30.21 853 25.19 10.3 50.5 63 3.5 38.3 10.6 0.417
01:36 1023 30.21 853 25.19 10.2 50.3 63 3.5 38.3 10.51 0.414
01:37 1023 30.21 853 25.19 10 50 64 3.5 38.3 10.36 0.408
01:38 1023 30.21 853 25.19 9.8 49.6 65 3.6 38.4 10.17 0.4
01:39 1023 30.21 853 25.19 9.6 49.2 66 3.5 38.3 9.94 0.391
01:40 1023 30.21 853 25.19 9.5 49.1 65 3.3 38 9.87 0.389
01:41 1023 30.21 853 25.19 9.5 49.1 65 3.3 38 9.9 0.39
01:42 1023 30.21 853 25.19 9.5 49.1 66 3.4 38.2 9.83 0.387
01:43 1023 30.21 853 25.19 9.4 48.9 67 3.5 38.3 9.71 0.382
01:44 1023 30.21 853 25.19 9.2 48.5 67 3.4 38.1 9.56 0.376
01:45 1023 30.21 853 25.19 9.1 48.4 68 3.5 38.3 9.46 0.372
01:46 1023 30.21 853 25.19 9 48.2 68 3.4 38.2 9.36 0.369
01:47 1023 30.21 853 25.19 9 48.1 68 3.3 38 9.33 0.367
01:48 1023 30.21 853 25.19 9 48.3 67 3.3 37.9 9.39 0.37
01:49 1023 30.21 853 25.19 9.1 48.5 67 3.4 38.1 9.46 0.372
01:50 1023 30.21 853 25.19 9.2 48.6 67 3.4 38.1 9.5 0.374
01:51 1023 30.21 853 25.19 9.1 48.4 68 3.5 38.2 9.42 0.371
01:52 1023 30.21 853 25.19 8.9 48 68 3.4 38.1 9.23 0.363
01:53 1023 30.21 853 25.19 8.8 47.9 67 3.1 37.6 9.11 0.359
01:54 1023 30.21 853 25.19 9 48.3 66 3 37.4 9.29 0.366
01:55 1023 30.21 853 25.19 9.4 49 65 3.1 37.7 9.57 0.377
01:56 1023 30.21 853 25.19 9.5 49.1 65 3.2 37.8 9.68 0.381
01:57 1023 30.21 853 25.19 9.4 49 66 3.4 38.1 9.64 0.38
01:58 1023 30.21 853 25.19 9.2 48.6 66 3.3 37.9 9.42 0.371
01:59 1023 30.21 853 25.19 9 48.2 67 3.3 38 9.33 0.367
02:00 1023 30.21 853 25.19 8.8 47.9 68 3.2 37.7 9.09 0.358
02:01 1023 30.21 853 25.19 8.7 47.7 68 3.2 37.8 8.98 0.354
02:02 1023 30.21 853 25.19 8.6 47.6 68 3.2 37.7 8.97 0.353
02:03 1023 30.21 853 25.19 8.6 47.5 69 3.2 37.7 8.93 0.352
02:04 1023 30.21 853 25.19 8.6 47.4 69 3.2 37.8 8.9 0.35
02:05 1023 30.21 853 25.19 8.5 47.2 70 3.2 37.8 8.82 0.347
02:06 1023 30.21 853 25.19 8.4 47 70 3.3 37.9 8.68 0.342
02:07 1023 30.21 853 25.19 8.2 46.7 71 3.2 37.8 8.55 0.337
02:08 1023 30.21 852 25.16 8.1 46.6 71 3.2 37.8 8.49 0.334
02:09 1023 30.21 852 25.16 8.1 46.6 71 3.2 37.8 8.44 0.332
02:10 1023 30.21 852 25.16 8.1 46.6 71 3.2 37.8 8.45 0.333
02:11 1023 30.21 852 25.16 8 46.5 71 3.1 37.6 8.41 0.331
02:12 1023 30.21 852 25.16 8.1 46.6 70 3.1 37.5 8.45 0.333
02:13 1023 30.21 852 25.16 8.2 46.8 70 3.1 37.6 8.58 0.338
02:14 1023 30.21 852 25.16 8.4 47.1 68 2.9 37.3 8.77 0.345
02:15 1023 30.21 852 25.16 8.7 47.7 67 2.9 37.3 9.05 0.356
02:16 1023 30.21 852 25.16 9.1 48.4 65 3 37.4 9.37 0.369
02:17 1023 30.21 852 25.16 9.4 48.9 65 3.2 37.8 9.63 0.379
02:18 1023 30.21 852 25.16 9.5 49.2 64 3.1 37.6 9.83 0.387
02:19 1023 30.21 852 25.16 9.7 49.4 64 3.3 38 9.93 0.391
02:20 1023 30.21 852 25.16 9.6 49.2 65 3.4 38.1 9.84 0.387
02:21 1023 30.21 852 25.16 9.4 48.9 66 3.4 38 9.73 0.383
02:22 1023 30.21 852 25.16 9.4 48.9 65 3.3 37.9 9.7 0.382
02:23 1023 30.21 852 25.16 9.4 49 66 3.4 38.1 9.71 0.382
02:24 1023 30.21 852 25.16 9.3 48.7 66 3.3 37.9 9.64 0.38
02:25 1023 30.21 852 25.16 9.2 48.6 66 3.2 37.8 9.54 0.376
02:26 1023 30.21 852 25.16 9.1 48.4 67 3.3 38 9.41 0.37
02:27 1023 30.21 852 25.16 9.1 48.3 67 3.2 37.7 9.4 0.37
02:28 1023 30.21 852 25.16 9.1 48.3 66 3.1 37.7 9.36 0.369
02:29 1023 30.21 852 25.16 9.1 48.4 66 3.1 37.7 9.44 0.372
02:30 1023 30.21 852 25.16 9.2 48.6 64 2.9 37.2 9.56 0.376
02:31 1023 30.21 852 25.16 9.6 49.3 63 2.9 37.3 9.88 0.389
02:32 1023 30.21 852 25.16 9.8 49.6 62 3 37.3 10.05 0.396
02:33 1023 30.21 852 25.16 10 50 61 2.9 37.3 10.32 0.406
02:34 1023 30.21 852 25.16 10.3 50.5 61 3 37.4 10.53 0.415
02:35 1023 30.21 852 25.16 10.3 50.6 60 3 37.3 10.58 0.417
02:36 1023 30.21 852 25.16 10.5 50.8 59 2.9 37.3 10.74 0.423
02:37 1023 30.21 852 25.16 10.6 51.1 60 3.1 37.6 10.9 0.429
02:38 1023 30.21 852 25.16 10.6 51.1 59 2.9 37.3 10.94 0.431
02:39 1023 30.21 852 25.16 10.7 51.3 57 2.7 36.8 11.05 0.435
02:40 1023 30.21 852 25.16 11 51.7 58 3 37.4 11.28 0.444
02:41 1023 30.21 852 25.16 11 51.8 57 2.8 37.1 11.35 0.447
02:42 1023 30.21 852 25.16 11.1 52.1 57 2.9 37.3 11.45 0.451
02:43 1023 30.21 852 25.16 11.1 51.9 58 3.1 37.6 11.4 0.449
02:44 1023 30.21 852 25.16 10.9 51.6 58 3.1 37.6 11.23 0.442
02:45 1023 30.21 852 25.16 10.7 51.2 59 3.1 37.6 10.98 0.432
02:46 1023 30.21 852 25.16 10.4 50.8 60 3.1 37.6 10.79 0.425
02:47 1023 30.21 852 25.16 10.2 50.4 61 3.1 37.6 10.58 0.417
02:48 1023 30.21 852 25.16 10 49.9 62 3.1 37.5 10.33 0.407
02:49 1023 30.21 852 25.16 9.7 49.5 63 3.1 37.6 10.11 0.398
02:50 1023 30.21 852 25.16 9.5 49 64 3.1 37.5 9.84 0.387
02:51 1023 30.21 852 25.16 9.2 48.6 65 3 37.4 9.62 0.379
02:52 1023 30.21 852 25.16 9 48.3 66 3 37.4 9.42 0.371
02:53 1023 30.21 852 25.16 8.9 47.9 66 3 37.3 9.25 0.364
02:54 1023 30.21 852 25.16 8.7 47.7 67 2.9 37.3 9.1 0.358
02:55 1023 30.21 852 25.16 8.7 47.6 67 2.9 37.2 9.03 0.356
02:56 1023 30.21 852 25.16 8.6 47.4 67 2.9 37.2 8.94 0.352
02:57 1023 30.21 852 25.16 8.5 47.4 67 2.9 37.1 8.88 0.35
02:58 1023 30.21 852 25.16 8.6 47.4 67 2.9 37.2 8.91 0.351
02:59 1023 30.21 852 25.16 8.5 47.2 68 2.9 37.2 8.82 0.347
03:00 1023 30.21 852 25.16 8.3 46.9 69 3 37.3 8.67 0.341
03:01 1023 30.21 852 25.16 8.1 46.6 69 2.8 37 8.5 0.335
03:02 1023 30.21 852 25.16 8.2 46.8 68 2.7 36.9 8.54 0.336
03:03 1023 30.21 852 25.16 8.3 46.9 68 2.7 36.8 8.67 0.341
03:04 1023 30.21 852 25.16 8.3 46.9 68 2.8 37 8.64 0.34
03:05 1023 30.21 852 25.16 8.2 46.8 68 2.8 37.1 8.57 0.337
03:06 1023 30.21 852 25.16 8.3 46.9 68 2.7 36.9 8.63 0.34
03:07 1023 30.21 852 25.16 8.3 46.9 67 2.7 36.8 8.72 0.343
03:08 1023 30.21 852 25.16 8.4 47.1 67 2.7 36.9 8.76 0.345
03:09 1023 30.21 852 25.16 8.4 47.1 67 2.7 36.9 8.78 0.346
03:10 1023 30.21 852 25.16 8.4 47.2 67 2.7 36.9 8.82 0.347
03:11 1023 30.21 852 25.16 8.4 47.2 68 2.8 37.1 8.81 0.347
03:12 1023 30.21 852 25.16 8.3 47 68 2.9 37.1 8.72 0.343
03:13 1023 30.21 852 25.16 8.2 46.7 69 2.8 37.1 8.55 0.337
03:14 1023 30.21 852 25.16 8 46.5 69 2.8 37.1 8.46 0.333
03:15 1023 30.21 852 25.16 8 46.3 70 2.8 37.1 8.35 0.329
03:16 1023 30.21 852 25.16 7.8 46 71 2.8 37 8.16 0.321
03:17 1023 30.21 852 25.16 7.6 45.8 71 2.7 36.9 8 0.315
03:18 1023 30.21 852 25.16 7.5 45.5 72 2.7 36.9 7.83 0.308
03:19 1023 30.21 852 25.16 7.4 45.3 71 2.6 36.6 7.78 0.306
03:20 1023 30.21 852 25.16 7.5 45.5 71 2.6 36.7 7.89 0.311
03:21 1023 30.21 852 25.16 7.5 45.6 71 2.6 36.7 7.88 0.31
03:22 1023 30.21 852 25.16 7.5 45.5 71 2.6 36.6 7.88 0.31
03:23 1023 30.21 852 25.16 7.4 45.4 71 2.6 36.6 7.79 0.307
03:24 1023 30.21 852 25.16 7.3 45.1 72 2.5 36.6 7.59 0.299
03:25 1023 30.21 852 25.16 7.1 44.8 73 2.6 36.6 7.45 0.293
03:26 1023 30.21 852 25.16 7.1 44.7 72 2.5 36.4 7.46 0.294
03:27 1023 30.21 852 25.16 7.2 45 71 2.3 36.2 7.62 0.3
03:28 1023 30.21 852 25.16 7.4 45.4 70 2.4 36.3 7.8 0.307
03:29 1023 30.21 852 25.16 7.6 45.6 70 2.5 36.4 7.95 0.313
03:30 1023 30.21 852 25.16 7.7 45.8 70 2.5 36.5 8.02 0.316
03:31 1023 30.21 852 25.16 7.7 45.9 69 2.5 36.6 8.11 0.319
03:32 1023 30.21 852 25.16 7.7 45.9 70 2.6 36.7 8.13 0.32
03:33 1023 30.21 852 25.16 7.8 46 70 2.6 36.6 8.2 0.323
03:34 1023 30.21 852 25.16 7.9 46.1 69 2.7 36.8 8.26 0.325
03:35 1023 30.21 852 25.16 8 46.3 69 2.6 36.7 8.34 0.328
03:36 1023 30.21 852 25.16 8.1 46.5 69 2.7 36.9 8.44 0.332
03:37 1023 30.21 852 25.16 8.1 46.6 69 2.8 37.1 8.46 0.333
03:38 1023 30.21 852 25.16 8 46.4 69 2.7 36.9 8.38 0.33
03:39 1023 30.21 852 25.16 8 46.4 69 2.7 36.8 8.37 0.33
03:40 1023 30.21 852 25.16 7.9 46.3 69 2.6 36.7 8.31 0.327
03:41 1023 30.21 852 25.16 8 46.4 68 2.5 36.5 8.35 0.329
03:42 1023 30.21 852 25.16 8.1 46.5 67 2.4 36.3 8.44 0.332
03:43 1023 30.21 852 25.16 8.2 46.8 67 2.5 36.4 8.6 0.339
03:44 1023 30.21 852 25.16 8.3 47 67 2.5 36.5 8.69 0.342
03:45 1023 30.21 852 25.16 8.3 46.9 67 2.6 36.8 8.67 0.341
03:46 1023 30.21 852 25.16 8.2 46.8 68 2.7 36.8 8.61 0.339
03:47 1023 30.21 852 25.16 8.1 46.5 69 2.7 36.9 8.46 0.333
03:48 1023 30.21 852 25.16 7.9 46.1 69 2.6 36.7 8.26 0.325
03:49 1023 30.21 852 25.16 7.7 45.8 71 2.7 36.8 8.04 0.317
03:50 1023 30.21 852 25.16 7.5 45.4 70 2.4 36.4 7.92 0.312
03:51 1023 30.21 852 25.16 7.5 45.6 70 2.5 36.5 7.94 0.313
03:52 1023 30.21 852 25.16 7.5 45.5 70 2.4 36.4 7.91 0.311
03:53 1023 30.21 852 25.16 7.6 45.7 70 2.4 36.4 8 0.315
03:54 1023 30.21 852 25.16 7.7 45.8 70 2.5 36.6 8.01 0.315
03:55 1023 30.21 852 25.16 7.7 45.8 70 2.5 36.6 8.02 0.316
03:56 1023 30.21 852 25.16 7.7 45.8 70 2.6 36.7 8.04 0.317
03:57 1023 30.21 852 25.16 7.7 45.9 69 2.4 36.3 8.12 0.32
03:58 1023 30.21 852 25.16 7.9 46.3 67 2.3 36.1 8.3 0.327
03:59 1023 30.21 852 25.16 8.2 46.7 66 2.2 36 8.55 0.337
04:00 1023 30.21 852 25.16 8.5 47.2 65 2.2 36 8.81 0.347
04:01 1023 30.21 852 25.16 8.6 47.5 66 2.6 36.6 8.9 0.35
04:02 1023 30.21 852 25.16 8.4 47 67 2.5 36.5 8.68 0.342
04:03 1023 30.21 852 25.16 8.1 46.5 68 2.5 36.5 8.42 0.331
04:04 1023 30.21 852 25.16 7.8 46.1 69 2.5 36.5 8.17 0.322
04:05 1023 30.21 852 25.16 7.6 45.7 70 2.5 36.4 7.98 0.314
04:06 1023 30.21 852 25.16 7.4 45.3 71 2.5 36.5 7.76 0.306
04:07 1023 30.21 852 25.16 7.1 44.9 72 2.4 36.3 7.57 0.298
04:08 1023 30.21 852 25.16 7 44.7 72 2.4 36.3 7.42 0.292
04:09 1023 30.21 852 25.16 7 44.6 72 2.3 36.2 7.42 0.292
04:10 1023 30.21 852 25.16 7 44.7 72 2.4 36.3 7.45 0.293
04:11 1023 30.21 852 25.16 7.1 44.8 72 2.4 36.4 7.47 0.294
04:12 1023 30.21 852 25.16 7.1 44.7 72 2.4 36.4 7.47 0.294
04:13 1023 30.21 852 25.16 7 44.6 73 2.5 36.5 7.41 0.292
04:14 1023 30.21 852 25.16 6.9 44.5 73 2.5 36.4 7.34 0.289
04:15 1023 30.21 852 25.16 6.9 44.3 73 2.4 36.4 7.24 0.285
04:16 1023 30.21 852 25.16 6.8 44.2 74 2.4 36.4 7.19 0.283
04:17 1023 30.21 852 25.16 6.7 44.1 74 2.5 36.4 7.09 0.279
04:18 1023 30.21 852 25.16 6.6 43.8 75 2.4 36.4 6.959 0.274
04:19 1023 30.21 852 25.16 6.3 43.4 76 2.4 36.3 6.772 0.267
04:20 1023 30.21 852 25.16 6.1 43 77 2.4 36.3 6.557 0.258
04:21 1023 30.21 852 25.16 6.1 43 77 2.4 36.3 6.523 0.257
04:22 1023 30.21 852 25.16 6.1 43 76 2.3 36.2 6.506 0.256
04:23 1023 30.21 852 25.16 6.1 43 76 2.3 36.1 6.49 0.256
04:24 1023 30.21 852 25.16 6.1 43.1 76 2.3 36.2 6.502 0.256
04:25 1023 30.21 852 25.16 6.2 43.1 77 2.4 36.2 6.519 0.257
04:26 1023 30.21 852 25.16 6.2 43.1 76 2.3 36.2 6.531 0.257
04:27 1023 30.21 852 25.16 6.2 43.1 76 2.3 36.2 6.52 0.257
04:28 1023 30.21 852 25.16 6.1 42.9 77 2.3 36.1 6.446 0.254
04:29 1023 30.21 852 25.16 5.9 42.6 77 2.2 36 6.328 0.249
04:30 1023 30.21 852 25.16 5.8 42.4 78 2.3 36.2 6.193 0.244
04:31 1023 30.21 852 25.16 5.8 42.4 78 2.2 36 6.136 0.242
04:32 1023 30.21 852 25.16 5.8 42.5 78 2.2 36 6.233 0.245
04:33 1023 30.21 852 25.16 5.9 42.6 77 2.1 35.8 6.261 0.246
04:34 1023 30.21 852 25.16 5.7 42.3 77 2.1 35.7 6.097 0.24
04:35 1023 30.21 852 25.16 5.7 42.2 78 2.2 35.9 6.098 0.24
04:36 1023 30.21 852 25.16 5.7 42.2 78 2.1 35.8 6.075 0.239
04:37 1023 30.21 852 25.16 5.8 42.5 76 2 35.6 6.149 0.242
04:38 1023 30.21 852 25.16 5.7 42.3 77 2 35.6 6.065 0.239
04:39 1023 30.21 852 25.16 5.5 42 78 2 35.5 5.89 0.232
04:40 1023 30.21 852 25.16 5.4 41.8 79 2 35.6 5.823 0.229
04:41 1023 30.21 852 25.16 5.4 41.7 78 1.9 35.5 5.801 0.228
04:42 1023 30.21 852 25.16 5.3 41.6 79 1.9 35.5 5.711 0.225
04:43 1023 30.21 852 25.16 5.3 41.5 79 1.9 35.3 5.671 0.223
04:44 1023 30.21 852 25.16 5.3 41.5 79 1.9 35.4 5.706 0.225
04:45 1023 30.21 852 25.16 5.4 41.6 79 2 35.5 5.724 0.225
04:46 1023 30.21 852 25.16 5.4 41.6 79 2 35.6 5.735 0.226
04:47 1023 30.21 852 25.16 5.2 41.4 79 1.9 35.5 5.623 0.221
04:48 1023 30.21 852 25.16 5.1 41.2 80 1.9 35.5 5.532 0.218
04:49 1023 30.21 852 25.16 5.1 41.2 80 2 35.6 5.51 0.217
04:50 1023 30.21 852 25.16 5.2 41.4 80 2.1 35.7 5.55 0.219
04:51 1023 30.21 852 25.16 5.3 41.5 79 2 35.6 5.59 0.22
04:52 1023 30.21 852 25.16 5.4 41.8 79 2.1 35.7 5.726 0.225
04:53 1023 30.21 852 25.16 5.7 42.2 77 1.9 35.5 5.918 0.233
04:54 1023 30.21 852 25.16 5.8 42.5 76 2 35.6 6.065 0.239
04:55 1023 30.21 852 25.16 6 42.8 76 2.1 35.7 6.235 0.245
04:56 1023 30.21 852 25.16 6.2 43.1 74 1.9 35.5 6.411 0.252
04:57 1023 30.21 852 25.16 6.1 43.1 74 1.9 35.4 6.411 0.252
04:58 1023 30.21 852 25.16 6.1 43.1 74 2 35.5 6.4 0.252
04:59 1023 30.21 852 25.16 6.2 43.1 74 1.9 35.4 6.434 0.253
05:00 1023 30.21 852 25.16 6.2 43.1 74 1.9 35.5 6.406 0.252
05:01 1023 30.21 852 25.16 6 42.7 75 1.9 35.5 6.298 0.248
05:02 1023 30.21 852 25.16 5.7 42.3 76 1.9 35.4 6.146 0.242
05:03 1023 30.21 852 25.16 5.7 42.2 77 1.9 35.4 6.033 0.238
05:04 1023 30.21 852 25.16 5.6 42.2 77 2 35.5 6.005 0.236
05:05 1023 30.21 852 25.16 5.6 42.1 77 2 35.6 6.033 0.238
05:06 1023 30.21 852 25.16 5.6 42.1 77 2 35.6 6.022 0.237
05:07 1023 30.21 852 25.16 5.6 42.1 77 2 35.6 6.011 0.237
05:08 1023 30.21 852 25.16 5.6 42.1 78 2 35.6 5.96 0.235
05:09 1023 30.21 852 25.16 5.6 42.2 78 2.1 35.7 6.005 0.236
05:10 1023 30.21 852 25.16 5.7 42.2 77 2 35.7 5.982 0.236
05:11 1023 30.21 852 25.16 5.7 42.3 77 1.9 35.5 6 0.236
05:12 1023 30.21 852 25.16 5.7 42.2 77 1.9 35.5 6 0.236
05:13 1023 30.21 852 25.16 5.7 42.2 77 1.9 35.4 5.988 0.236
05:14 1023 30.21 852 25.16 5.8 42.4 76 2 35.5 6.068 0.239
05:15 1023 30.21 852 25.16 5.9 42.7 76 2 35.6 6.164 0.243
05:16 1023 30.21 852 25.16 6 42.8 76 2 35.6 6.254 0.246
05:17 1023 30.21 852 25.16 6 42.7 76 2.1 35.7 6.288 0.248
05:18 1023 30.21 852 25.16 5.9 42.6 77 2.1 35.8 6.215 0.245
05:19 1023 30.21 852 25.16 5.7 42.3 77 2.1 35.7 6.119 0.241
05:20 1023 30.21 852 25.16 5.7 42.2 78 2.1 35.7 6.079 0.239
05:21 1023 30.21 852 25.16 5.6 42.1 78 2.1 35.7 5.977 0.235
05:22 1023 30.21 852 25.16 5.6 42.1 78 2.1 35.8 5.977 0.235
05:23 1023 30.21 852 25.16 5.6 42 79 2.2 35.9 5.938 0.234
05:24 1023 30.21 852 25.16 5.4 41.8 79 2.2 35.9 5.853 0.23
05:25 1023 30.21 852 25.16 5.4 41.6 79 2.1 35.8 5.768 0.227
05:26 1023 30.21 852 25.16 5.4 41.7 79 2.1 35.8 5.774 0.227
05:27 1023 30.21 852 25.16 5.5 41.8 79 2.1 35.8 5.768 0.227
05:28 1023 30.21 852 25.16 5.3 41.6 79 2 35.6 5.706 0.225
05:29 1023 30.21 852 25.16 5.3 41.5 79 2 35.5 5.655 0.223
05:30 1023 30.21 852 25.16 5.2 41.4 79 2 35.5 5.564 0.219
05:31 1023 30.21 852 25.16 5.2 41.3 80 2 35.5 5.514 0.217
05:32 1023 30.21 852 25.16 5.1 41.2 80 1.9 35.4 5.474 0.216
05:33 1023 30.21 852 25.16 5.1 41.1 80 1.9 35.4 5.429 0.214
05:34 1023 30.21 852 25.16 5 41 80 1.9 35.4 5.383 0.212
05:35 1023 30.21 852 25.16 5 41 80 1.9 35.4 5.378 0.212
05:36 1023 30.21 852 25.16 5 41 80 1.9 35.5 5.349 0.211
05:37 1023 30.21 852 25.16 5 41 81 2 35.5 5.316 0.209
05:38 1023 30.21 852 25.16 5 41.1 80 1.8 35.3 5.366 0.211
05:39 1023 30.21 852 25.16 5 41 80 1.8 35.3 5.333 0.21
05:40 1023 30.21 852 25.16 4.9 40.9 80 1.8 35.2 5.265 0.207
05:41 1023 30.21 852 25.16 4.8 40.7 81 1.9 35.4 5.208 0.205
05:42 1023 30.21 852 25.16 4.9 40.7 82 2 35.6 5.202 0.205
05:43 1023 30.21 852 25.16 5 41 81 2 35.6 5.287 0.208
05:44 1023 30.21 852 25.16 5.2 41.3 79 1.9 35.4 5.434 0.214
05:45 1023 30.21 852 25.16 5.3 41.5 79 1.9 35.5 5.485 0.216
05:46 1023 30.21 852 25.16 5.4 41.8 78 2 35.5 5.689 0.224
05:47 1023 30.21 852 25.16 5.7 42.3 77 2 35.5 5.87 0.231
05:48 1023 30.21 852 25.16 5.9 42.5 76 1.9 35.5 6.034 0.238
05:49 1023 30.21 852 25.16 6 42.7 75 1.9 35.5 6.187 0.244
05:50 1023 30.21 852 25.16 6.1 42.9 75 2 35.6 6.3 0.248
05:51 1023 30.21 852 25.16 6.1 43 75 2 35.6 6.385 0.251
05:52 1023 30.21 852 25.16 6.2 43.2 74 2 35.6 6.481 0.255
05:53 1023 30.21 852 25.16 6.2 43.2 74 2 35.7 6.504 0.256
05:54 1023 30.21 852 25.16 6.2 43.1 75 2 35.6 6.458 0.254
05:55 1023 30.21 852 25.16 6.1 42.9 75 2 35.7 6.391 0.252
05:56 1023 30.21 852 25.16 6 42.9 75 2 35.5 6.362 0.25
05:57 1023 30.21 852 25.16 6.3 43.3 73 1.9 35.4 6.543 0.258
05:58 1023 30.21 852 25.16 6.6 43.8 72 1.9 35.4 6.809 0.268
05:59 1023 30.21 852 25.16 6.9 44.4 71 2 35.5 7.05 0.278
06:00 1023 30.21 852 25.16 7.2 44.9 70 2.1 35.7 7.32 0.288
06:01 1023 30.21 852 25.16 7.5 45.4 69 2.1 35.8 7.59 0.299
06:02 1023 30.21 852 25.16 7.7 45.9 67 2 35.6 7.88 0.31
06:03 1023 30.21 852 25.16 8.1 46.6 65 2 35.6 8.2 0.323
06:04 1023 30.21 852 25.16 8.4 47 65 2.1 35.8 8.44 0.332
06:05 1023 30.21 852 25.16 8.4 47 65 2.2 36 8.52 0.335
06:06 1023 30.21 852 25.16 8.2 46.8 66 2.2 36 8.41 0.331
06:07 1023 30.21 852 25.16 8.1 46.5 66 2.2 35.9 8.33 0.328
06:08 1023 30.21 852 25.16 8.1 46.5 66 2 35.7 8.36 0.329
06:09 1023 30.21 852 25.16 8.1 46.6 67 2.3 36.1 8.32 0.328
06:10 1023 30.21 852 25.16 7.8 46 68 2.2 36 8.14 0.32
06:11 1023 30.21 852 25.16 7.6 45.6 68 2 35.7 7.95 0.313
06:12 1023 30.21 852 25.16 7.5 45.6 68 2 35.6 7.91 0.311
06:13 1023 30.21 852 25.16 7.6 45.8 67 1.9 35.5 7.95 0.313
06:14 1023 30.21 852 25.16 7.8 46.1 66 2 35.6 8.08 0.318
06:15 1023 30.21 852 25.16 8 46.3 66 2 35.6 8.24 0.324
06:16 1023 30.21 852 25.16 8.2 46.8 64 1.8 35.2 8.5 0.335
06:17 1023 30.21 852 25.16 8.6 47.4 63 2 35.5 8.8 0.346
06:18 1023 30.21 852 25.16 8.7 47.6 63 2.2 35.9 8.86 0.349
06:19 1023 30.21 852 25.16 8.5 47.4 65 2.3 36.2 8.74 0.344
06:20 1023 30.21 852 25.16 8.4 47.1 65 2.2 36 8.69 0.342
06:21 1023 30.21 852 25.16 8.5 47.2 65 2.2 36 8.77 0.345
06:22 1023 30.21 852 25.16 8.7 47.6 64 2.3 36.1 8.95 0.352
06:23 1023 30.21 852 25.16 8.8 47.9 64 2.3 36.2 9.07 0.357
06:24 1023 30.21 852 25.16 8.8 47.9 64 2.4 36.3 9.1 0.358
06:25 1023 30.21 852 25.16 8.8 47.8 64 2.4 36.4 9.08 0.357
06:26 1023 30.21 852 25.16 8.6 47.5 65 2.5 36.6 8.95 0.352
06:27 1023 30.21 852 25.16 8.5 47.3 66 2.5 36.6 8.81 0.347
06:28 1023 30.21 852 25.16 8.3 46.9 66 2.4 36.4 8.68 0.342
06:29 1023 30.21 852 25.16 8.1 46.7 68 2.6 36.7 8.48 0.334
06:30 1023 30.21 852 25.16 7.8 46 69 2.5 36.4 8.19 0.322
06:31 1023 30.21 852 25.16 7.6 45.7 70 2.6 36.7 8 0.315
06:32 1023 30.21 852 25.16 7.4 45.3 71 2.5 36.4 7.81 0.307
06:33 1023 30.21 852 25.16 7.2 45 71 2.4 36.3 7.66 0.302
06:34 1023 30.21 852 25.16 7.2 44.9 72 2.4 36.3 7.55 0.297
06:35 1023 30.21 852 25.16 7.1 44.7 72 2.3 36.1 7.47 0.294
06:36 1023 30.21 852 25.16 7.1 44.8 71 2.3 36.2 7.52 0.296
06:37 1023 30.21 852 25.16 7.2 45 70 2.2 36 7.59 0.299
06:38 1023 30.21 852 25.16 7.3 45.1 70 2.2 36 7.62 0.3
06:39 1023 30.21 852 25.16 7.3 45.1 71 2.3 36.1 7.66 0.302
06:40 1023 30.21 852 25.16 7.2 45 71 2.2 36 7.54 0.297
06:41 1023 30.21 852 25.16 7.2 44.9 71 2.2 36 7.56 0.298
06:42 1023 30.21 852 25.16 7.3 45.2 70 2.3 36.1 7.61 0.3
06:43 1023 30.21 852 25.16 7.3 45.1 71 2.3 36.2 7.61 0.3
06:44 1023 30.21 852 25.16 7.2 45 71 2.3 36.1 7.57 0.298
06:45 1023 30.21 852 25.16 7.3 45.2 70 2.2 36 7.63 0.3
06:46 1023 30.21 852 25.16 7.5 45.4 69 2.2 36 7.71 0.304
06:47 1023 30.21 852 25.16 7.5 45.6 69 2.1 35.8 7.83 0.308
06:48 1023 30.21 852 25.16 7.7 45.9 67 2.1 35.8 8 0.315
06:49 1023 30.21 852 25.16 7.9 46.2 67 2.2 35.9 8.2 0.323
06:50 1023 30.21 852 25.16 8 46.5 66 2.2 35.9 8.27 0.326
06:51 1023 30.21 852 25.16 8.2 46.7 66 2.2 35.9 8.49 0.334
06:52 1023 30.21 852 25.16 8.2 46.8 66 2.3 36.1 8.53 0.336
06:53 1023 30.21 852 25.16 8.2 46.7 66 2.2 36 8.5 0.335
06:54 1023 30.21 852 25.16 8.1 46.6 66 2.3 36.1 8.42 0.331
06:55 1023 30.21 852 25.16 8 46.4 67 2.3 36.2 8.3 0.327
06:56 1023 30.21 852 25.16 7.8 46.1 68 2.4 36.3 8.15 0.321
06:57 1023 30.21 852 25.16 7.6 45.6 69 2.3 36.2 7.92 0.312
06:58 1023 30.21 852 25.16 7.4 45.4 70 2.3 36.1 7.78 0.306
06:59 1023 30.21 852 25.16 7.4 45.3 70 2.3 36.1 7.77 0.306
07:00 1023 30.21 852 25.16 7.4 45.3 70 2.2 36 7.78 0.306
07:01 1023 30.21 852 25.16 7.4 45.3 69 2.1 35.9 7.77 0.306
07:02 1023 30.21 852 25.16 7.5 45.5 68 2.1 35.8 7.89 0.311
07:03 1023 30.21 852 25.16 7.7 45.8 68 2.2 35.9 8.05 0.317
07:04 1023 30.21 852 25.16 7.6 45.7 69 2.3 36.1 7.93 0.312
07:05 1023 30.21 852 25.16 7.5 45.5 70 2.3 36.2 7.85 0.309
07:06 1023 30.21 852 25.16 7.4 45.2 70 2.3 36.2 7.72 0.304
07:07 1023 30.21 852 25.16 7.2 45 71 2.4 36.3 7.57 0.298
07:08 1023 30.21 852 25.16 7.1 44.8 72 2.4 36.2 7.51 0.296
07:09 1023 30.21 852 25.16 7.2 44.9 71 2.3 36.2 7.51 0.296
07:10 1023 30.21 852 25.16 7.2 45 71 2.3 36.2 7.64 0.301
07:11 1023 30.21 852 25.16 7.3 45.2 71 2.4 36.3 7.7 0.303
07:12 1023 30.21 852 25.16 7.4 45.3 71 2.5 36.5 7.71 0.304
07:13 1023 30.21 852 25.16 7.3 45.1 72 2.5 36.6 7.61 0.3
07:14 1023 30.21 852 25.16 7.2 45 71 2.4 36.3 7.59 0.299
07:15 1023 30.21 852 25.16 7.1 44.8 72 2.4 36.3 7.47 0.294
07:16 1023 30.21 852 25.16 7 44.6 72 2.3 36.1 7.38 0.291
07:17 1023 30.21 852 25.16 7.1 44.7 72 2.3 36.2 7.37 0.29
07:18 1023 30.21 852 25.16 7.1 44.7 72 2.3 36.2 7.42 0.292
07:19 1023 30.21 852 25.16 7.1 44.7 71 2.2 36 7.35 0.289
07:20 1023 30.21 852 25.16 7.1 44.8 71 2.3 36.1 7.45 0.293
07:21 1023 30.21 852 25.16 7.1 44.8 72 2.4 36.3 7.45 0.293
07:22 1023 30.21 852 25.16 7.1 44.8 72 2.5 36.4 7.48 0.294
07:23 1023 30.21 852 25.16 7 44.6 73 2.4 36.4 7.39 0.291
07:24 1023 30.21 852 25.16 6.9 44.4 73 2.5 36.4 7.27 0.286
07:25 1023 30.21 852 25.16 6.8 44.3 73 2.4 36.4 7.2 0.283
07:26 1023 30.21 852 25.16 6.7 44.1 74 2.4 36.3 7.06 0.278
07:27 1023 30.21 852 25.16 6.5 43.8 74 2.3 36.2 6.928 0.273
07:28 1023 30.21 852 25.16 6.5 43.7 75 2.3 36.2 6.928 0.273
07:29 1023 30.21 852 25.16 6.6 43.8 75 2.4 36.4 6.945 0.273
07:30 1023 30.21 852 25.16 6.5 43.8 75 2.4 36.4 6.956 0.274
07:31 1023 30.21 852 25.16 6.5 43.7 75 2.4 36.4 6.905 0.272
07:32 1023 30.21 852 25.16 6.5 43.8 75 2.5 36.4 6.894 0.271
07:33 1023 30.21 852 25.16 6.6 43.8 75 2.5 36.5 6.973 0.275
07:34 1023 30.21 852 25.16 6.6 43.8 75 2.4 36.4 6.973 0.275
07:35 1023 30.21 852 25.16 6.7 44 75 2.5 36.5 7.05 0.278
07:36 1023 30.21 852 25.16 6.8 44.2 74 2.5 36.5 7.15 0.281
07:37 1023 30.21 852 25.16 6.9 44.4 74 2.5 36.5 7.26 0.286
07:38 1023 30.21 852 25.16 6.9 44.5 73 2.5 36.5 7.32 0.288
07:39 1023 30.21 852 25.16 7.1 44.8 73 2.6 36.7 7.45 0.293
07:40 1023 30.21 852 25.16 7.1 44.8 74 2.8 37 7.54 0.297
07:41 1023 30.21 852 25.16 7.1 44.7 74 2.8 37.1 7.48 0.294
07:42 1023 30.21 852 25.16 7 44.6 74 2.6 36.8 7.47 0.294
07:43 1023 30.21 852 25.16 7.2 45 72 2.4 36.3 7.55 0.297
07:44 1023 30.21 852 25.16 7.5 45.6 70 2.5 36.5 7.81 0.307
07:45 1023 30.21 852 25.16 7.7 45.9 70 2.6 36.6 8.03 0.316
07:46 1023 30.21 852 25.16 7.8 46 69 2.5 36.6 8.16 0.321
07:47 1023 30.21 852 25.16 8 46.3 68 2.5 36.4 8.3 0.327
07:48 1023 30.21 852 25.16 8.2 46.7 68 2.6 36.6 8.49 0.334
07:49 1023 30.21 852 25.16 8.4 47.1 66 2.5 36.4 8.72 0.343
07:50 1023 30.21 852 25.16 8.7 47.6 65 2.5 36.6 8.96 0.353
07:51 1023 30.21 852 25.16 8.8 47.8 66 2.9 37.2 9.11 0.359
07:52 1023 30.21 852 25.16 8.8 47.8 67 2.9 37.3 9.12 0.359
07:53 1023 30.21 852 25.16 8.8 47.8 66 2.8 37 9.19 0.362
07:54 1023 30.21 852 25.16 8.8 47.9 67 3.1 37.5 9.18 0.361
07:55 1023 30.21 852 25.16 8.7 47.7 67 3 37.3 9.12 0.359
07:56 1023 30.21 852 25.16 8.7 47.6 67 2.9 37.3 9.07 0.357
07:57 1023 30.21 852 25.16 8.6 47.6 67 3 37.4 9.02 0.355
07:58 1023 30.21 852 25.16 8.7 47.6 68 3.1 37.6 9.03 0.356
07:59 1023 30.21 852 25.16 8.6 47.5 69 3.2 37.8 9 0.354
08:00 1023 30.21 852 25.16 8.5 47.4 70 3.5 38.2 8.95 0.352
08:01 1023 30.21 852 25.16 8.4 47.2 70 3.3 38 8.87 0.349
08:02 1023 30.21 852 25.16 8.4 47.2 72 3.7 38.6 8.82 0.347
08:03 1023 30.21 852 25.16 8.4 47.2 71 3.4 38.2 8.82 0.347
08:04 1023 30.21 852 25.16 8.5 47.3 72 3.7 38.7 8.84 0.348
08:05 1023 30.21 852 25.16 8.6 47.4 71 3.7 38.6 8.9 0.35
08:06 1023 30.21 852 25.16 8.6 47.4 71 3.5 38.4 8.87 0.349
08:07 1023 30.21 852 25.16 8.7 47.6 70 3.4 38.2 8.95 0.352
08:08 1023 30.21 852 25.16 8.9 48 69 3.5 38.2 9.11 0.359
08:09 1023 30.21 852 25.16 9 48.2 69 3.6 38.5 9.27 0.365
08:10 1023 30.21 852 25.16 9.1 48.3 71 4 39.2 9.33 0.367
08:11 1023 30.21 852 25.16 9 48.2 71 4 39.2 9.29 0.366
08:12 1023 30.21 852 25.16 9 48.1 70 3.7 38.7 9.28 0.365
08:13 1023 30.21 852 25.16 9.1 48.3 71 4.1 39.3 9.37 0.369
08:14 1023 30.21 852 25.16 9.1 48.4 72 4.3 39.7 9.46 0.372
08:15 1023 30.21 852 25.16 9.2 48.5 72 4.4 40 9.46 0.372
08:16 1023 30.21 852 25.16 9.3 48.7 72 4.6 40.3 9.56 0.376
08:17 1023 30.21 852 25.16 9.2 48.6 73 4.6 40.3 9.59 0.378
08:18 1023 30.21 852 25.16 9.2 48.5 71 4.3 39.7 9.59 0.378
08:19 1023 30.21 852 25.16 9.2 48.6 71 4.4 39.9 9.65 0.38
08:20 1023 30.21 852 25.16 9.4 48.9 71 4.5 40.2 9.79 0.385
08:21 1023 30.21 852 25.16 9.6 49.2 70 4.4 39.9 9.97 0.393
08:22 1023 30.21 852 25.16 9.8 49.6 68 4.3 39.7 10.18 0.401
08:23 1023 30.21 852 25.16 10 50.1 68 4.5 40 10.33 0.407
08:24 1023 30.21 852 25.16 10.2 50.3 68 4.5 40.2 10.5 0.413
08:25 1023 30.21 852 25.16 10.3 50.5 69 4.8 40.7 10.68 0.42
08:26 1023 30.21 852 25.16 10.4 50.8 69 4.9 40.8 10.73 0.422
08:27 1023 30.21 852 25.16 10.5 50.9 69 5.1 41.2 10.86 0.428
08:28 1023 30.21 852 25.16 10.5 51 68 5 41 10.93 0.43
08:29 1023 30.21 852 25.16 10.6 51.2 69 5.2 41.3 11.06 0.435
08:30 1023 30.21 852 25.16 10.8 51.4 68 5.2 41.4 11.2 0.441
08:31 1023 30.21 852 25.16 10.9 51.7 67 5.2 41.3 11.37 0.448
08:32 1023 30.21 852 25.16 11.1 51.9 65 4.8 40.6 11.44 0.45
08:33 1023 30.21 852 25.16 11.2 52.1 68 5.6 42 11.55 0.455
08:34 1023 30.21 852 25.16 11.2 52.2 68 5.5 41.9 11.61 0.457
08:35 1023 30.21 852 25.16 11.3 52.3 65 5 41 11.63 0.458
08:36 1023 30.21 852 25.16 11.4 52.5 65 5.2 41.3 11.76 0.463
08:37 1023 30.21 852 25.16 11.5 52.7 65 5.2 41.3 11.87 0.467
08:38 1023 30.21 852 25.16 11.6 52.9 64 5.2 41.3 11.97 0.471
08:39 1023 30.21 852 25.16 11.8 53.2 66 5.6 42.1 12.18 0.48
08:40 1023 30.21 852 25.16 12 53.5 66 5.8 42.4 12.4 0.488
08:41 1023 30.21 852 25.16 12.2 53.9 64 5.6 42 12.55 0.494
08:42 1023 30.21 852 25.16 12.2 54 65 5.8 42.5 12.61 0.496
08:43 1023 30.21 852 25.16 12.3 54.1 65 5.9 42.7 12.66 0.498
08:44 1023 30.21 852 25.16 12.3 54.1 66 6.3 43.3 12.69 0.5
08:45 1023 30.21 852 25.16 12.4 54.3 64 5.9 42.6 12.78 0.503
08:46 1023 30.21 852 25.16 12.5 54.5 66 6.3 43.3 12.91 0.508
08:47 1023 30.21 852 25.16 12.7 54.9 66 6.5 43.7 13.06 0.514
08:48 1023 30.21 852 25.16 12.9 55.3 63 6.1 43.1 13.25 0.522
08:49 1023 30.21 852 25.16 13.1 55.6 64 6.5 43.7 13.41 0.528
08:50 1023 30.21 852 25.16 13.3 56 66 7.1 44.8 13.66 0.538
08:51 1023 30.21 852 25.16 13.5 56.4 61 6.2 43.1 13.85 0.545
08:52 1023 30.21 852 25.16 13.7 56.7 61 6.3 43.4 14.05 0.553
08:53 1023 30.21 852 25.16 13.8 56.9 59 6 42.9 14.18 0.558
08:54 1023 30.21 852 25.16 13.9 57.1 60 6.3 43.4 14.27 0.562
08:55 1023 30.21 852 25.16 14.1 57.3 57 5.8 42.5 14.38 0.566
08:56 1023 30.21 852 25.16 14.2 57.6 58 6.1 42.9 14.52 0.572
08:57 1023 30.21 852 25.16 14.4 57.9 57 6.1 43 14.76 0.581
08:58 1023 30.21 852 25.16 14.5 58.1 57 6.1 43 14.97 0.589
08:59 1023 30.21 852 25.16 14.7 58.5 58 6.6 44 15.2 0.598
09:00 1023 30.21 852 25.16 14.8 58.7 53 5.4 41.7 15.3 0.602
09:01 1023 30.21 852 25.16 14.9 58.8 57 6.6 43.9 15.42 0.607
09:02 1023 30.21 852 25.16 15 59 59 7.2 45 15.55 0.612
09:03 1023 30.21 852 25.16 15.1 59.2 61 7.7 45.8 15.7 0.618
09:04 1023 30.21 852 25.16 15.3 59.5 56 6.7 44 15.83 0.623
09:05 1023 30.21 852 25.16 15.4 59.7 61 7.9 46.3 15.91 0.626
09:06 1023 30.21 852 25.16 15.5 59.9 54 6.4 43.5 16.03 0.631
09:07 1023 30.21 852 25.16 15.6 60.1 53 6.1 42.9 16.1 0.634
09:08 1023 30.21 852 25.16 15.7 60.2 55 6.7 44.1 16.19 0.637
09:09 1023 30.21 852 25.16 15.7 60.2 56 6.9 44.4 16.15 0.636
09:10 1023 30.21 852 25.16 15.7 60.3 57 7.4 45.3 16.21 0.638
09:11 1022 30.18 852 25.16 15.8 60.4 55 6.9 44.4 16.28 0.641
09:12 1022 30.18 852 25.16 15.8 60.5 54 6.7 44 16.33 0.643
09:13 1023 30.21 852 25.16 15.9 60.5 56 7.3 45.1 16.32 0.643
09:14 1022 30.18 852 25.16 15.9 60.6 55 6.9 44.4 16.33 0.643
09:15 1023 30.21 852 25.16 16 60.8 59 8.1 46.6 16.38 0.645
09:16 1023 30.21 852 25.16 16.1 60.9 54 6.8 44.3 16.55 0.652
09:17 1023 30.21 852 25.16 16.2 61.2 52 6.5 43.7 16.7 0.657
09:18 1023 30.21 852 25.16 16.4 61.4 53 6.9 44.5 16.86 0.664
09:19 1023 30.21 852 25.16 16.6 61.9 51 6.4 43.6 17.07 0.672
09:20 1023 30.21 852 25.16 16.9 62.4 57 8.3 46.9 17.29 0.681
09:21 1023 30.21 852 25.16 17.1 62.7 52 7.4 45.2 17.4 0.685
09:22 1023 30.21 852 25.16 17.1 62.8 48 6.1 43.1 17.31 0.681
09:23 1023 30.21 852 25.16 17 62.6 46 5.6 42 17.17 0.676
09:24 1023 30.21 852 25.16 17 62.6 48 6.1 43.1 17.13 0.674
09:25 1023 30.21 852 25.16 17 62.5 45 5 40.9 17.11 0.674
09:26 1023 30.21 852 25.16 17 62.6 46 5.5 42 17.16 0.676
09:27 1023 30.21 852 25.16 17 62.6 46 5.4 41.8 17.19 0.677
09:28 1023 30.21 852 25.16 17 62.6 45 5.1 41.1 17.23 0.678
09:29 1023 30.21 852 25.16 17 62.7 47 5.8 42.5 17.4 0.685
09:30 1023 30.21 852 25.16 17.1 62.8 51 7 44.6 17.55 0.691
09:31 1023 30.21 852 25.16 17.2 63 46 5.6 42.1 17.7 0.697
09:32 1023 30.21 852 25.16 17.3 63.1 45 5.3 41.5 17.79 0.7
09:33 1023 30.21 852 25.16 17.3 63.2 48 6.2 43.2 17.94 0.706
09:34 1023 30.21 852 25.16 17.4 63.4 49 6.7 44.1 18.07 0.711
09:35 1023 30.21 852 25.16 17.5 63.6 45 5.5 41.9 18.16 0.715
09:36 1023 30.21 852 25.16 17.7 63.8 46 6.1 43 18.17 0.715
09:37 1023 30.21 852 25.16 17.8 64 48 6.7 44 18.22 0.717
09:38 1023 30.21 852 25.16 18 64.3 46 6.4 43.5 18.4 0.724
09:39 1023 30.21 852 25.16 18.1 64.6 43 5.5 42 18.45 0.726
09:40 1023 30.21 852 25.16 18.3 64.9 41 4.8 40.6 18.56 0.731
09:41 1023 30.21 852 25.16 18.3 65 49 7.5 45.5 18.72 0.737
09:42 1023 30.21 852 25.16 18.4 65.2 47 7 44.5 18.85 0.742
09:43 1023 30.21 852 25.16 18.6 65.4 45 6.4 43.6 18.92 0.745
09:44 1023 30.21 852 25.16 18.7 65.6 48 7.4 45.3 18.98 0.747
09:45 1023 30.21 852 25.16 18.7 65.6 40 5 40.9 18.97 0.747
09:46 1023 30.21 852 25.16 18.8 65.8 40 4.9 40.9 19.04 0.75
09:47 1023 30.21 852 25.16 18.9 65.9 42 5.8 42.4 19.09 0.752
09:48 1023 30.21 852 25.16 18.9 66.1 43 6.1 43 19.2 0.756
09:49 1023 30.21 852 25.16 19 66.2 39 5 41 19.24 0.757
09:50 1023 30.21 852 25.16 19 66.3 39 4.8 40.7 19.28 0.759
09:51 1023 30.21 852 25.16 19.1 66.4 39 4.9 40.7 19.35 0.762
09:52 1023 30.21 852 25.16 19.1 66.5 39 4.8 40.7 19.42 0.765
09:53 1023 30.21 852 25.16 19.2 66.6 39 5.1 41.2 19.54 0.769
09:54 1023 30.21 852 25.16 19.3 66.7 33 2.7 36.8 19.62 0.772
09:55 1023 30.21 852 25.16 19.3 66.8 46 7.5 45.6 19.78 0.779
09:56 1023 30.21 852 25.16 19.4 67 43 6.7 44 19.94 0.785
09:57 1023 30.21 852 25.16 19.5 67 41 5.9 42.6 19.96 0.786
09:58 1023 30.21 852 25.16 19.5 67.2 42 6.4 43.6 19.97 0.786
09:59 1023 30.21 852 25.16 19.6 67.3 38 4.9 40.8 20.02 0.788
10:00 1023 30.21 852 25.16 19.6 67.3 32 2.8 37 19.97 0.786
10:01 1023 30.21 852 25.16 19.6 67.3 37 4.8 40.7 19.89 0.783
10:02 1023 30.21 852 25.16 19.6 67.3 39 5.5 41.8 19.92 0.784
10:03 1023 30.21 852 25.16 19.7 67.5 36 4.2 39.6 19.94 0.785
10:04 1023 30.21 852 25.16 19.7 67.5 38 5 41 19.93 0.785
10:05 1023 30.21 852 25.16 19.8 67.7 31 2.4 36.4 20.02 0.788
10:06 1023 30.21 852 25.16 19.9 67.9 39 5.7 42.3 20.11 0.792
10:07 1023 30.21 852 25.16 20 68 30 2.1 35.8 20.19 0.795
10:08 1023 30.21 852 25.16 20.1 68.1 34 3.7 38.6 20.25 0.797
10:09 1023 30.21 852 25.16 20.1 68.3 33 3.7 38.6 20.32 0.8
10:10 1023 30.21 852 25.16 20.3 68.5 35 4.6 40.2 20.43 0.804
10:11 1023 30.21 852 25.16 20.4 68.8 34 4.4 39.9 20.57 0.81
10:12 1023 30.21 852 25.16 20.5 69 31 2.9 37.3 20.71 0.815
10:13 1023 30.21 852 25.16 20.6 69.2 31 3.2 37.7 20.88 0.822
10:14 1023 30.21 852 25.16 20.8 69.5 29 2.2 35.9 21.05 0.829
10:15 1023 30.21 852 25.16 21.1 70 30 3.2 37.7 21.25 0.837
10:16 1023 30.21 852 25.16 21.4 70.5 35 5.4 41.8 21.48 0.846
10:17 1023 30.21 852 25.16 21.6 70.9 26 1.4 34.5 21.6 0.85
10:18 1023 30.21 852 25.16 21.9 71.4 29 3.3 38 21.66 0.853
10:19 1023 30.21 852 25.16 22.1 71.7 30 3.7 38.6 21.77 0.857
10:20 1023 30.21 852 25.16 22.2 71.9 29 3.5 38.3 21.72 0.855
10:21 1023 30.21 852 25.16 22.2 71.9 30 4.1 39.4 21.7 0.854
10:22 1023 30.21 852 25.16 22.3 72.1 29 3.5 38.2 21.74 0.856
10:23 1023 30.21 852 25.16 22.2 71.9 27 2.6 36.6 21.79 0.858
10:24 1023 30.21 852 25.16 22.2 72 31 4.3 39.7 21.9 0.862
10:25 1023 30.21 852 25.16 22.2 71.9 27 2.4 36.4 21.97 0.865
10:26 1023 30.21 852 25.16 22 71.6 29 3.3 37.9 21.82 0.859
10:27 1023 30.21 852 25.16 21.9 71.4 29 3.4 38.1 21.81 0.859
10:28 1023 30.21 852 25.16 21.8 71.2 32 4.5 40 21.78 0.857
10:29 1023 30.21 852 25.16 21.8 71.3 27 2.4 36.4 21.83 0.859
10:30 1023 30.21 852 25.16 21.9 71.4 27 2.3 36.1 21.84 0.86
10:31 1023 30.21 852 25.16 21.9 71.5 28 2.9 37.2 22 0.866
10:32 1023 30.21 852 25.16 22 71.6 32 4.8 40.6 22.15 0.872
10:33 1023 30.21 852 25.16 22.1 71.8 28 3.2 37.8 22.25 0.876
10:34 1023 30.21 852 25.16 22.2 71.9 30 4 39.2 22.38 0.881
10:35 1022 30.18 852 25.16 22.2 71.9 28 3.1 37.6 22.34 0.88
10:36 1022 30.18 852 25.16 22.1 71.8 32 4.7 40.5 22.24 0.876
10:37 1022 30.18 852 25.16 22 71.6 30 4 39.1 22.17 0.873
10:38 1022 30.18 852 25.16 21.8 71.3 33 4.9 40.8 22.04 0.868
10:39 1022 30.18 852 25.16 21.6 70.9 31 4.1 39.4 21.85 0.86
10:40 1022 30.18 852 25.16 21.4 70.6 31 4 39.2 21.73 0.856
10:41 1022 30.18 852 25.16 21.4 70.5 30 3.4 38.2 21.76 0.857
10:42 1022 30.18 852 25.16 21.3 70.3 31 3.8 38.9 21.55 0.848
10:43 1022 30.18 852 25.16 21.1 70.1 37 5.9 42.6 21.44 0.844
10:44 1022 30.18 852 25.16 21.1 69.9 33 4.4 39.9 21.46 0.845
10:45 1022 30.18 852 25.16 21 69.8 37 6 42.8 21.46 0.845
10:46 1022 30.18 852 25.16 21 69.8 31 3.6 38.5 21.45 0.844
10:47 1022 30.18 852 25.16 21 69.8 42 7.7 45.9 21.55 0.848
10:48 1022 30.18 851 25.13 21 69.9 35 5 41 21.49 0.846
10:49 1022 30.18 852 25.16 21.1 69.9 30 3 37.3 21.54 0.848
10:50 1022 30.18 851 25.13 21.1 69.9 29 2.4 36.4 21.61 0.851
10:51 1022 30.18 851 25.13 21.1 69.9 34 4.9 40.8 21.71 0.855
10:52 1022 30.18 852 25.16 21.1 70 38 6.3 43.4 21.72 0.855
10:53 1022 30.18 852 25.16 21.3 70.3 32 4 39.1 21.89 0.862
10:54 1022 30.18 852 25.16 21.3 70.3 33 4.5 40 21.85 0.86
10:55 1022 30.18 852 25.16 21.3 70.4 33 4.4 39.9 21.87 0.861
10:56 1022 30.18 852 25.16 21.4 70.5 32 4 39.2 21.95 0.864
10:57 1022 30.18 851 25.13 21.4 70.5 32 4 39.3 22.04 0.868
10:58 1022 30.18 851 25.13 21.4 70.6 39 7.2 44.9 22.16 0.872
10:59 1022 30.18 851 25.13 21.4 70.6 39 7 44.7 22.14 0.872
11:00 1022 30.18 851 25.13 21.4 70.6 42 8.1 46.5 22.03 0.867
11:01 1022 30.18 851 25.13 21.5 70.6 33 4.9 40.8 21.93 0.863
11:02 1022 30.18 851 25.13 21.4 70.6 38 6.7 44 21.86 0.861
11:03 1022 30.18 851 25.13 21.5 70.6 33 4.6 40.4 21.86 0.861
11:04 1022 30.18 851 25.13 21.4 70.5 34 5.2 41.3 21.71 0.855
11:05 1022 30.18 851 25.13 21.4 70.5 31 3.9 39 21.75 0.856
11:06 1022 30.18 851 25.13 21.4 70.4 32 4.3 39.7 21.8 0.858
11:07 1022 30.18 851 25.13 21.4 70.5 32 4.1 39.4 21.97 0.865
11:08 1022 30.18 851 25.13 21.4 70.5 38 6.8 44.2 21.99 0.866
11:09 1022 30.18 851 25.13 21.5 70.6 29 3 37.5 22.06 0.869
11:10 1022 30.18 851 25.13 21.4 70.5 28 2.2 35.9 21.99 0.866
11:11 1022 30.18 851 25.13 21.3 70.4 37 6.1 42.9 21.95 0.864
11:12 1022 30.18 851 25.13 21.4 70.5 30 3.1 37.6 21.98 0.865
11:13 1022 30.18 851 25.13 21.5 70.7 30 3.3 38 22.09 0.87
11:14 1022 30.18 851 25.13 21.6 70.9 32 4.2 39.6 22.22 0.875
11:15 1022 30.18 851 25.13 21.7 71.1 30 3.5 38.3 22.2 0.874
11:16 1022 30.18 851 25.13 21.7 71.1 33 5 41.1 22.22 0.875
11:17 1022 30.18 851 25.13 21.7 71.1 29 3 37.3 22.24 0.876
11:18 1022 30.18 851 25.13 21.8 71.2 35 5.7 42.2 22.17 0.873
11:19 1022 30.18 851 25.13 21.9 71.4 33 4.9 40.8 22.32 0.879
11:20 1022 30.18 851 25.13 22 71.5 35 6 42.7 22.38 0.881
11:21 1022 30.18 851 25.13 22 71.6 33 5.3 41.5 22.39 0.881
11:22 1022 30.18 851 25.13 22 71.6 35 6.2 43.2 22.37 0.881
11:23 1022 30.18 851 25.13 22 71.6 32 5 40.9 22.4 0.882
11:24 1022 30.18 851 25.13 22.1 71.7 30 3.6 38.6 22.3 0.878
11:25 1022 30.18 851 25.13 22 71.5 31 4.3 39.7 22.25 0.876
11:26 1022 30.18 851 25.13 22 71.5 31 4.1 39.3 22.32 0.879
11:27 1022 30.18 851 25.13 22 71.6 29 3.4 38.2 22.38 0.881
11:28 1022 30.18 851 25.13 22.1 71.7 30 4 39.2 22.42 0.883
11:29 1022 30.18 851 25.13 22.1 71.9 30 3.9 39 22.47 0.885
11:30 1022 30.18 851 25.13 22.2 71.9 31 4.3 39.7 22.51 0.886
11:31 1022 30.18 851 25.13 22.2 72 30 4.1 39.4 22.67 0.893
11:32 1022 30.18 851 25.13 22.3 72.1 32 4.8 40.7 22.78 0.897
11:33 1022 30.18 851 25.13 22.4 72.4 32 5 41 23 0.906
11:34 1022 30.18 851 25.13 22.6 72.7 33 5.6 42 22.99 0.905
11:35 1022 30.18 851 25.13 22.6 72.7 31 4.8 40.7 22.91 0.902
11:36 1022 30.18 851 25.13 22.6 72.7 35 6.6 43.9 22.96 0.904
11:37 1022 30.18 851 25.13 22.7 72.8 29 4 39.1 22.95 0.904
11:38 1022 30.18 851 25.13 22.6 72.7 31 4.6 40.4 22.86 0.9
11:39 1022 30.18 851 25.13 22.6 72.7 28 3.6 38.4 22.85 0.9
11:40 1022 30.18 851 25.13 22.6 72.8 30 4.5 40.1 22.87 0.9
11:41 1022 30.18 851 25.13 22.7 72.8 31 4.7 40.5 22.91 0.902
11:42 1022 30.18 851 25.13 22.7 72.8 29 4.1 39.3 22.87 0.9
11:43 1022 30.18 851 25.13 22.7 72.9 27 3.1 37.6 22.87 0.9
11:44 1022 30.18 851 25.13 22.7 72.9 27 3.2 37.8 22.95 0.904
11:45 1022 30.18 851 25.13 22.8 73 27 3.1 37.7 22.96 0.904
11:46 1022 30.18 851 25.13 22.9 73.2 28 3.5 38.4 23.1 0.909
11:47 1022 30.18 851 25.13 23 73.3 32 5.7 42.3 23.2 0.913
11:48 1022 30.18 851 25.13 23 73.4 26 2.9 37.2 23.27 0.916
11:49 1022 30.18 851 25.13 23.1 73.6 29 4.1 39.3 23.41 0.922
11:50 1022 30.18 851 25.13 23.2 73.8 25 2.2 35.9 23.54 0.927
11:51 1022 30.18 851 25.13 23.4 74 28 4.1 39.4 23.6 0.929
11:52 1022 30.18 851 25.13 23.4 74.1 31 5.3 41.6 23.7 0.933
11:53 1022 30.18 851 25.13 23.5 74.4 29 4.8 40.7 23.79 0.937
11:54 1022 30.18 851 25.13 23.7 74.6 31 5.6 42.1 23.86 0.939
11:55 1022 30.18 851 25.13 23.7 74.6 24 2.3 36.1 23.83 0.938
11:56 1022 30.18 851 25.13 23.7 74.7 27 3.8 38.8 23.88 0.94
11:57 1022 30.18 851 25.13 23.9 75 26 3.2 37.7 24.11 0.949
11:58 1022 30.18 851 25.13 24.1 75.4 30 5.6 42.1 24.35 0.959
11:59 1022 30.18 851 25.13 24.3 75.7 30 6 42.7 24.43 0.962
12:00 1022 30.18 851 25.13 24.3 75.8 25 3.4 38.2 24.44 0.962
12:01 1022 30.18 851 25.13 24.3 75.8 24 2.8 37 24.34 0.958
12:02 1022 30.18 851 25.13 24.2 75.6 32 6.5 43.7 24.27 0.956
12:03 1022 30.18 851 25.13 24.3 75.7 30 6 42.8 24.34 0.958
12:04 1022 30.18 851 25.13 24.3 75.7 25 3.2 37.7 24.42 0.961
12:05 1022 30.18 851 25.13 24.3 75.8 25 3.2 37.7 24.38 0.96
12:06 1022 30.18 851 25.13 24.3 75.8 25 3.4 38 24.35 0.959
12:07 1021 30.15 851 25.13 24.4 75.9 26 4.1 39.4 24.56 0.967
12:08 1021 30.15 851 25.13 24.6 76.2 30 6 42.7 24.86 0.979
12:09 1021 30.15 851 25.13 24.8 76.7 28 5.4 41.8 25.18 0.991
12:10 1021 30.15 851 25.13 24.9 76.9 25 3.8 38.8 25.13 0.989
12:11 1021 30.15 851 25.13 25 76.9 29 6.1 43 25.09 0.988
12:12 1021 30.15 851 25.13 25.2 77.3 24 3.6 38.6 25.34 0.998
12:13 1021 30.15 851 25.13 25.3 77.6 26 4.8 40.6 25.54 1.006
12:14 1021 30.15 851 25.13 25.5 77.9 22 2.5 36.5 25.59 1.007
12:15 1021 30.15 851 25.13 25.4 77.7 25 4.1 39.3 25.35 0.998
12:16 1021 30.15 851 25.13 25.3 77.6 27 5.2 41.3 25.35 0.998
12:17 1021 30.15 851 25.13 25.2 77.4 26 4.7 40.5 25.24 0.994
12:18 1021 30.15 850 25.1 25.3 77.5 33 8.2 46.7 25.36 0.998
12:19 1021 30.15 850 25.1 25.4 77.7 24 3.4 38.1 25.45 1.002
12:20 1021 30.15 851 25.13 25.4 77.8 27 5.1 41.2 25.45 1.002
12:21 1021 30.15 851 25.13 25.6 78 24 3.9 39 25.53 1.005
12:22 1021 30.15 851 25.13 25.7 78.2 24 3.9 39.1 25.69 1.011
12:23 1021 30.15 850 25.1 25.8 78.4 23 3.1 37.5 25.92 1.02
12:24 1021 30.15 850 25.1 25.9 78.7 23 3.8 38.8 26.19 1.031
12:25 1021 30.15 850 25.1 25.9 78.5 26 5.3 41.6 26.11 1.028
12:26 1021 30.15 850 25.1 25.8 78.4 32 8 46.4 25.93 1.021
12:27 1021 30.15 850 25.1 25.7 78.2 26 4.8 40.7 25.82 1.017
12:28 1021 30.15 850 25.1 25.7 78.2 29 6.8 44.2 25.74 1.013
12:29 1021 30.15 850 25.1 25.7 78.2 29 6.7 44.1 25.69 1.011
12:30 1021 30.15 850 25.1 25.6 78.1 24 4.1 39.3 25.6 1.008
12:31 1021 30.15 850 25.1 25.3 77.6 26 4.7 40.4 25.42 1.001
12:32 1021 30.15 850 25.1 25.3 77.5 27 5.3 41.5 25.33 0.997
12:33 1021 30.15 850 25.1 25.3 77.5 26 4.6 40.3 25.41 1
12:34 1021 30.15 850 25.1 25.3 77.6 25 4 39.3 25.61 1.008
12:35 1021 30.15 850 25.1 25.4 77.8 27 5.2 41.4 25.77 1.015
12:36 1021 30.15 850 25.1 25.5 77.9 25 4.3 39.8 25.85 1.018
12:37 1021 30.15 850 25.1 25.5 77.9 30 6.9 44.4 25.82 1.017
12:38 1021 30.15 850 25.1 25.5 77.9 25 4.3 39.7 25.79 1.015
12:39 1021 30.15 850 25.1 25.4 77.8 26 4.7 40.5 25.75 1.014
12:40 1021 30.15 850 25.1 25.4 77.7 27 5.5 41.9 25.71 1.012
12:41 1021 30.15 850 25.1 25.3 77.5 27 5.2 41.4 25.62 1.009
12:42 1021 30.15 850 25.1 25.3 77.5 24 3.8 38.8 25.62 1.009
12:43 1021 30.15 850 25.1 25.4 77.6 28 5.8 42.5 25.67 1.011
12:44 1021 30.15 850 25.1 25.3 77.6 27 5.5 41.9 25.64 1.009
12:45 1021 30.15 850 25.1 25.3 77.6 31 7.4 45.3 25.6 1.008
12:46 1021 30.15 850 25.1 25.5 77.8 28 5.9 42.6 25.73 1.013
12:47 1021 30.15 850 25.1 25.6 78 26 4.9 40.8 25.82 1.017
12:48 1021 30.15 850 25.1 25.6 78.1 35 9.1 48.3 25.96 1.022
12:49 1021 30.15 850 25.1 25.7 78.3 25 4.7 40.4 26.08 1.027
12:50 1021 30.15 850 25.1 25.7 78.2 30 7.1 44.8 26.08 1.027
12:51 1021 30.15 850 25.1 25.7 78.2 24 3.7 38.7 26.1 1.028
12:52 1021 30.15 850 25.1 25.6 78.1 26 4.8 40.7 25.99 1.023
12:53 1021 30.15 850 25.1 25.7 78.2 25 4.5 40.2 25.98 1.023
12:54 1021 30.15 850 25.1 25.6 78.1 32 7.8 46.1 25.93 1.021
12:55 1021 30.15 850 25.1 25.7 78.2 30 7.1 44.7 25.9 1.02
12:56 1021 30.15 850 25.1 25.6 78.1 29 6.3 43.4 25.86 1.018
12:57 1021 30.15 850 25.1 25.7 78.2 28 5.8 42.5 25.92 1.02
12:58 1021 30.15 850 25.1 25.8 78.4 27 5.6 42 25.95 1.022
12:59 1021 30.15 850 25.1 25.8 78.5 24 4.1 39.4 25.99 1.023
13:00 1021 30.15 850 25.1 25.8 78.5 28 6.3 43.3 26 1.024
13:01 1021 30.15 850 25.1 25.9 78.6 30 7.3 45.1 26.07 1.026
13:02 1021 30.15 850 25.1 26.1 78.9 31 8 46.3 26.16 1.03
13:03 1021 30.15 850 25.1 26.2 79.1 30 7.3 45.1 26.29 1.035
13:04 1021 30.15 850 25.1 26.2 79.2 23 3.7 38.7 26.31 1.036
13:05 1021 30.15 850 25.1 26.2 79.2 27 6.2 43.2 26.34 1.037
13:06 1021 30.15 850 25.1 26.3 79.3 24 4.4 39.8 26.32 1.036
13:07 1021 30.15 850 25.1 26.3 79.3 24 4.5 40.2 26.34 1.037
13:08 1021 30.15 850 25.1 26.3 79.3 26 5.4 41.6 26.29 1.035
13:09 1021 30.15 850 25.1 26.1 79 24 4.2 39.6 26.23 1.033
13:10 1021 30.15 850 25.1 26.1 79 23 3.7 38.7 26.27 1.034
13:11 1021 30.15 850 25.1 26.2 79.1 21 2.1 35.8 26.39 1.039
13:12 1021 30.15 850 25.1 26.2 79.2 21 2.3 36.1 26.45 1.041
13:13 1021 30.15 850 25.1 26.2 79.1 24 4.4 39.8 26.48 1.043
13:14 1021 30.15 850 25.1 26.2 79.2 22 2.9 37.2 26.51 1.044
13:15 1021 30.15 850 25.1 26.3 79.3 24 4.4 39.9 26.56 1.046
13:16 1021 30.15 850 25.1 26.3 79.4 25 4.8 40.6 26.66 1.05
13:17 1021 30.15 850 25.1 26.4 79.5 25 4.9 40.9 26.64 1.049
13:18 1021 30.15 850 25.1 26.3 79.3 25 5.2 41.4 26.6 1.047
13:19 1021 30.15 850 25.1 26.3 79.4 23 4.1 39.3 26.61 1.048
13:20 1021 30.15 850 25.1 26.4 79.5 24 4.3 39.7 26.6 1.047
13:21 1021 30.15 850 25.1 26.4 79.6 28 6.6 43.9 26.65 1.049
13:22 1021 30.15 850 25.1 26.5 79.7 27 6.3 43.4 26.67 1.05
13:23 1021 30.15 850 25.1 26.5 79.7 27 6.4 43.5 26.62 1.048
13:24 1021 30.15 850 25.1 26.5 79.6 30 7.8 46 26.61 1.048
13:25 1021 30.15 850 25.1 26.5 79.6 23 4 39.2 26.67 1.05
13:26 1021 30.15 850 25.1 26.5 79.8 28 7 44.6 26.69 1.051
13:27 1021 30.15 850 25.1 26.6 79.8 25 5.1 41.2 26.74 1.053
13:28 1021 30.15 850 25.1 26.6 79.9 25 5.4 41.8 26.77 1.054
13:29 1020 30.12 850 25.1 26.6 79.9 21 3.1 37.5 26.8 1.055
13:30 1020 30.12 850 25.1 26.6 79.9 25 5.4 41.8 26.84 1.057
13:31 1020 30.12 850 25.1 26.7 80.1 27 6.7 44 27.01 1.063
13:32 1020 30.12 850 25.1 26.8 80.2 25 5.5 41.8 27.1 1.067
13:33 1020 30.12 850 25.1 26.8 80.2 27 6.3 43.4 27.02 1.064
13:34 1020 30.12 850 25.1 26.7 80.1 25 5.2 41.4 27.02 1.064
13:35 1020 30.12 850 25.1 26.7 80 24 4.7 40.5 26.93 1.06
13:36 1020 30.12 850 25.1 26.7 80 26 5.9 42.7 26.86 1.057
13:37 1020 30.12 850 25.1 26.6 79.9 23 4 39.2 26.8 1.055
13:38 1020 30.12 850 25.1 26.6 80 26 5.7 42.2 26.86 1.057
13:39 1020 30.12 850 25.1 26.8 80.2 27 6.4 43.5 27.02 1.064
13:40 1020 30.12 850 25.1 26.9 80.3 22 3.6 38.4 27.01 1.063
13:41 1020 30.12 850 25.1 26.9 80.5 27 6.4 43.6 27.06 1.065
13:42 1020 30.12 850 25.1 27 80.7 22 4 39.3 27.17 1.07
13:43 1020 30.12 850 25.1 27.1 80.8 22 4.1 39.4 27.2 1.071
13:44 1020 30.12 850 25.1 27.3 81.2 25 5.9 42.7 27.36 1.077
13:45 1020 30.12 850 25.1 27.4 81.4 25 5.7 42.2 27.41 1.079
13:46 1020 30.12 849 25.07 27.4 81.4 22 4 39.1 27.43 1.08
13:47 1020 30.12 850 25.1 27.3 81.1 24 5.4 41.7 27.46 1.081
13:48 1020 30.12 850 25.1 27.3 81.2 23 4.5 40.1 27.51 1.083
13:49 1020 30.12 850 25.1 27.3 81.1 25 5.8 42.4 27.63 1.088
13:50 1020 30.12 850 25.1 27.3 81.1 20 2.6 36.8 27.67 1.089
13:51 1020 30.12 849 25.07 27.4 81.4 18 1 33.7 27.79 1.094
13:52 1020 30.12 849 25.07 27.6 81.7 21 3.8 38.9 27.96 1.101
13:53 1020 30.12 849 25.07 27.7 81.8 15 -1.3 29.6 28.07 1.105
13:54 1020 30.12 849 25.07 27.7 81.9 18 1.4 34.5 28.08 1.106
13:55 1020 30.12 849 25.07 27.8 82 16 0.3 32.6 28.13 1.107
13:56 1020 30.12 849 25.07 27.8 82.1 14 -2.2 28 28.17 1.109
13:57 1020 30.12 849 25.07 27.9 82.1 16 0.2 32.3 28.22 1.111
13:58 1020 30.12 849 25.07 27.9 82.1 17 0.8 33.5 28.24 1.112
13:59 1020 30.12 849 25.07 27.9 82.2 14 -1.4 29.4 28.26 1.113
14:00 1020 30.12 849 25.07 27.9 82.3 14 -1.3 29.7 28.31 1.115
14:01 1020 30.12 849 25.07 27.9 82.3 16 -0.2 31.7 28.3 1.114
14:02 1020 30.12 849 25.07 28 82.3 15 -1 30.3 28.31 1.115
14:03 1020 30.12 849 25.07 28 82.3 15 -1.2 29.9 28.31 1.115
14:04 1020 30.12 849 25.07 27.9 82.2 14 -1.6 29.2 28.27 1.113
14:05 1020 30.12 849 25.07 27.9 82.3 14 -1.9 28.6 28.3 1.114
14:06 1020 30.12 849 25.07 28 82.3 14 -1.5 29.4 28.32 1.115
14:07 1020 30.12 849 25.07 28 82.4 14 -2 28.4 28.38 1.117
14:08 1020 30.12 849 25.07 28.1 82.5 17 0.7 33.2 28.47 1.121
14:09 1020 30.12 849 25.07 28.2 82.7 14 -1.1 29.9 28.59 1.126
14:10 1020 30.12 849 25.07 28.3 82.9 15 -0.1 31.8 28.62 1.127
14:11 1020 30.12 849 25.07 28.3 82.9 17 1 33.8 28.6 1.126
14:12 1020 30.12 849 25.07 28.3 82.9 18 1.6 34.9 28.66 1.128
14:13 1020 30.12 849 25.07 28.2 82.8 15 -0.8 30.6 28.65 1.128
14:14 1020 30.12 849 25.07 28.3 82.9 15 -0.5 31.1 28.66 1.128
14:15 1020 30.12 849 25.07 28.3 82.9 15 -1 30.3 28.61 1.126
14:16 1020 30.12 849 25.07 28.2 82.8 13 -2.2 28.1 28.55 1.124
14:17 1020 30.12 849 25.07 28.2 82.7 16 0.1 32.1 28.53 1.123
14:18 1020 30.12 849 25.07 28.2 82.8 17 0.9 33.7 28.57 1.125
14:19 1020 30.12 849 25.07 28.2 82.8 17 1.2 34.1 28.62 1.127
14:20 1020 30.12 849 25.07 28.3 82.9 14 -1.8 28.7 28.62 1.127
14:21 1020 30.12 849 25.07 28.1 82.6 14 -1.1 30 28.49 1.122
14:22 1020 30.12 849 25.07 28 82.4 14 -2 28.3 28.38 1.117
14:23 1020 30.12 849 25.07 28 82.3 14 -1.5 29.2 28.33 1.115
14:24 1020 30.12 849 25.07 28 82.4 15 -1.1 30.1 28.36 1.117
14:25 1020 30.12 849 25.07 28 82.5 18 1.5 34.7 28.38 1.117
14:26 1020 30.12 849 25.07 28.1 82.6 14 -1.1 30 28.43 1.119
14:27 1020 30.12 849 25.07 28.1 82.6 15 -0.3 31.4 28.49 1.122
14:28 1020 30.12 849 25.07 28.1 82.6 13 -2.4 27.7 28.47 1.121
14:29 1020 30.12 849 25.07 28.1 82.6 16 0.4 32.7 28.45 1.12
14:30 1020 30.12 849 25.07 28.2 82.7 14 -1.2 29.8 28.49 1.122
14:31 1020 30.12 849 25.07 28.1 82.6 17 1.1 34 28.53 1.123
14:32 1020 30.12 849 25.07 28.2 82.7 17 1 33.8 28.57 1.125
14:33 1020 30.12 849 25.07 28.3 82.9 15 -0.9 30.4 28.62 1.127
14:34 1020 30.12 849 25.07 28.3 83 17 0.9 33.6 28.69 1.13
14:35 1020 30.12 849 25.07 28.3 82.9 16 0.2 32.3 28.69 1.13
14:36 1020 30.12 849 25.07 28.3 82.9 14 -1.9 28.5 28.58 1.125
14:37 1020 30.12 849 25.07 28.1 82.6 14 -1.7 28.9 28.45 1.12
14:38 1020 30.12 849 25.07 28.1 82.6 14 -1.9 28.7 28.42 1.119
14:39 1020 30.12 849 25.07 28.1 82.7 13 -2.1 28.2 28.48 1.121
14:40 1020 30.12 849 25.07 28.1 82.6 13 -3 26.6 28.47 1.121
14:41 1020 30.12 849 25.07 28.1 82.5 13 -2.9 26.8 28.47 1.121
14:42 1020 30.12 849 25.07 28.1 82.6 16 0.5 32.9 28.5 1.122
14:43 1020 30.12 849 25.07 28.1 82.6 13 -2.7 27.2 28.48 1.121
14:44 1020 30.12 849 25.07 28.1 82.5 16 0.2 32.4 28.41 1.119
14:45 1020 30.12 849 25.07 28 82.5 16 0.3 32.6 28.42 1.119
14:46 1020 30.12 849 25.07 28.1 82.5 14 -2 28.3 28.45 1.12
14:47 1020 30.12 849 25.07 28 82.5 13 -2.5 27.4 28.37 1.117
14:48 1020 30.12 849 25.07 27.9 82.3 14 -1.3 29.6 28.24 1.112
14:49 1020 30.12 849 25.07 27.7 81.9 14 -1.4 29.4 28 1.102
14:50 1020 30.12 849 25.07 27.5 81.5 15 -1.1 30 27.87 1.097
14:51 1020 30.12 849 25.07 27.4 81.4 15 -1.5 29.3 27.78 1.094
14:52 1020 30.12 849 25.07 27.5 81.5 15 -1.6 29.1 27.83 1.096
14:53 1020 30.12 849 25.07 27.5 81.6 16 -0.3 31.4 27.9 1.098
14:54 1020 30.12 849 25.07 27.6 81.7 13 -2.6 27.4 27.99 1.102
14:55 1020 30.12 849 25.07 27.7 81.9 16 0.2 32.4 28.1 1.106
14:56 1020 30.12 849 25.07 27.8 82 16 0.1 32.3 28.16 1.109
14:57 1020 30.12 849 25.07 27.8 82.1 14 -1.7 29 28.21 1.111
14:58 1020 30.12 849 25.07 27.7 81.9 12 -3.4 25.8 28.13 1.107
14:59 1020 30.12 849 25.07 27.7 81.9 14 -1.9 28.6 28.03 1.104
15:00 1020 30.12 849 25.07 27.6 81.7 16 -0.4 31.3 28 1.102
15:01 1020 30.12 849 25.07 27.6 81.6 18 1 33.9 27.93 1.1
15:02 1020 30.12 849 25.07 27.5 81.5 18 1.6 34.9 27.83 1.096
15:03 1020 30.12 849 25.07 27.4 81.3 17 0.6 33 27.73 1.092
15:04 1020 30.12 849 25.07 27.4 81.3 17 0.3 32.5 27.76 1.093
15:05 1020 30.12 849 25.07 27.5 81.5 14 -2.2 28.1 27.85 1.096
15:06 1020 30.12 849 25.07 27.6 81.8 17 0.9 33.6 27.97 1.101
15:07 1020 30.12 849 25.07 27.6 81.7 15 -1.2 29.8 27.98 1.102
15:08 1020 30.12 849 25.07 27.6 81.7 14 -2 28.5 27.95 1.1
15:09 1020 30.12 849 25.07 27.5 81.5 15 -1.4 29.4 27.9 1.098
15:10 1020 30.12 849 25.07 27.5 81.5 14 -1.6 29 27.85 1.096
15:11 1020 30.12 849 25.07 27.5 81.5 14 -2.4 27.7 27.81 1.095
15:12 1020 30.12 849 25.07 27.5 81.5 12 -3.9 24.9 27.85 1.096
15:13 1020 30.12 849 25.07 27.6 81.7 14 -2.3 27.9 27.96 1.101
15:14 1020 30.12 849 25.07 27.7 81.8 14 -2.2 28 28.04 1.104
15:15 1020 30.12 849 25.07 27.7 81.9 15 -0.8 30.5 28.11 1.107
15:16 1020 30.12 849 25.07 27.8 82.1 14 -1.6 29.1 28.17 1.109
15:17 1020 30.12 849 25.07 27.9 82.1 14 -2.1 28.3 28.18 1.109
15:18 1020 30.12 849 25.07 27.7 81.9 14 -1.9 28.6 28.13 1.107
15:19 1020 30.12 849 25.07 27.7 81.8 13 -2.8 27 28.04 1.104
15:20 1020 30.12 849 25.07 27.7 81.8 14 -1.6 29.1 28 1.102
15:21 1020 30.12 849 25.07 27.6 81.8 12 -3.6 25.4 27.99 1.102
15:22 1020 30.12 849 25.07 27.7 81.9 13 -3.2 26.2 28.07 1.105
15:23 1020 30.12 849 25.07 27.8 82 15 -1.3 29.7 28.13 1.107
15:24 1020 30.12 849 25.07 27.7 81.9 12 -4.1 24.6 28.13 1.107
15:25 1020 30.12 849 25.07 27.8 82 13 -2.7 27.2 28.12 1.107
15:26 1020 30.12 849 25.07 27.8 82 14 -2 28.3 28.09 1.106
15:27 1020 30.12 849 25.07 27.7 81.9 12 -3.7 25.3 28.05 1.104
15:28 1020 30.12 849 25.07 27.6 81.7 13 -2.6 27.3 27.97 1.101
15:29 1020 30.12 849 25.07 27.6 81.8 14 -2.1 28.3 27.99 1.102
15:30 1020 30.12 849 25.07 27.6 81.7 13 -2.7 27.2 27.99 1.102
15:31 1020 30.12 849 25.07 27.5 81.5 13 -3.1 26.5 27.86 1.097
15:32 1020 30.12 849 25.07 27.3 81.2 13 -2.8 26.9 27.65 1.089
15:33 1020 30.12 849 25.07 27.2 80.9 13 -3 26.6 27.53 1.084
15:34 1020 30.12 849 25.07 27.1 80.8 14 -2 28.3 27.41 1.079
15:35 1020 30.12 849 25.07 27 80.6 14 -2.9 26.7 27.37 1.078
15:36 1020 30.12 849 25.07 27 80.6 14 -2.9 26.7 27.36 1.077
15:37 1020 30.12 849 25.07 27 80.5 13 -4 24.8 27.31 1.075
15:38 1020 30.12 849 25.07 26.8 80.3 13 -3.7 25.3 27.13 1.068
15:39 1020 30.12 849 25.07 26.6 79.9 13 -3.4 26 26.94 1.061
15:40 1020 30.12 849 25.07 26.5 79.7 13 -3.6 25.4 26.84 1.057
15:41 1020 30.12 849 25.07 26.5 79.6 13 -3.5 25.6 26.8 1.055
15:42 1020 30.12 849 25.07 26.4 79.5 16 -1 30.1 26.73 1.052
15:43 1020 30.12 849 25.07 26.2 79.1 15 -2.6 27.3 26.56 1.046
15:44 1020 30.12 849 25.07 26.2 79.2 14 -2.7 27.2 26.58 1.046
15:45 1020 30.12 849 25.07 26.2 79.2 13 -3.7 25.4 26.58 1.046
15:46 1020 30.12 849 25.07 26.2 79.2 12 -4.7 23.6 26.63 1.048
15:47 1020 30.12 849 25.07 26.3 79.4 14 -3 26.6 26.72 1.052
15:48 1020 30.12 849 25.07 26.5 79.6 14 -3.2 26.3 26.8 1.055
15:49 1020 30.12 849 25.07 26.5 79.7 14 -2.7 27.2 26.85 1.057
15:50 1020 30.12 849 25.07 26.5 79.6 14 -3.2 26.3 26.83 1.056
15:51 1020 30.12 849 25.07 26.4 79.5 14 -2.9 26.8 26.72 1.052
15:52 1020 30.12 849 25.07 26.2 79.2 17 -0.8 30.5 26.57 1.046
15:53 1020 30.12 849 25.07 25.9 78.7 17 -0.9 30.3 26.32 1.036
15:54 1020 30.12 849 25.07 25.8 78.4 15 -2.3 27.9 26.14 1.029
15:55 1020 30.12 849 25.07 25.7 78.2 17 -1.3 29.7 26.03 1.025
15:56 1020 30.12 849 25.07 25.6 78.1 16 -2.1 28.2 25.94 1.021
15:57 1020 30.12 849 25.07 25.5 78 19 0.4 32.6 25.89 1.019
15:58 1020 30.12 849 25.07 25.5 77.9 21 1.6 34.9 25.85 1.018
15:59 1020 30.12 849 25.07 25.4 77.7 18 -0.3 31.5 25.77 1.015
16:00 1020 30.12 849 25.07 25.4 77.8 22 2.3 36.1 25.78 1.015
16:01 1020 30.12 849 25.07 25.4 77.7 19 0.6 33.1 25.78 1.015
16:02 1020 30.12 849 25.07 25.6 78 19 0.7 33.3 25.91 1.02
16:03 1020 30.12 849 25.07 25.7 78.3 21 2.1 35.7 26.08 1.027
16:04 1020 30.12 849 25.07 25.7 78.3 19 0.9 33.6 26.11 1.028
16:05 1020 30.12 849 25.07 25.8 78.4 18 -0.5 31.1 26.09 1.027
16:06 1020 30.12 849 25.07 25.8 78.4 20 1.5 34.7 26.22 1.032
16:07 1020 30.12 849 25.07 25.9 78.7 18 0.4 32.7 26.33 1.037
16:08 1020 30.12 849 25.07 26.1 78.9 18 -0.2 31.7 26.42 1.04
16:09 1020 30.12 849 25.07 26 78.9 19 0.7 33.2 26.39 1.039
16:10 1020 30.12 849 25.07 26 78.8 16 -1.7 29 26.33 1.037
16:11 1020 30.12 849 25.07 25.9 78.6 21 1.9 35.4 26.24 1.033
16:12 1020 30.12 849 25.07 25.8 78.4 19 0.7 33.3 26.14 1.029
16:13 1020 30.12 849 25.07 25.7 78.3 15 -2.9 26.7 26.08 1.027
16:14 1020 30.12 849 25.07 25.8 78.5 16 -2 28.5 26.16 1.03
16:15 1020 30.12 849 25.07 26 78.7 16 -1.3 29.7 26.31 1.036
16:16 1020 30.12 849 25.07 25.9 78.7 16 -1.5 29.2 26.28 1.035
16:17 1020 30.12 849 25.07 25.9 78.6 18 -0.1 31.8 26.26 1.034
16:18 1020 30.12 849 25.07 25.8 78.4 17 -0.6 30.8 26.13 1.029
16:19 1020 30.12 849 25.07 25.8 78.4 20 1.6 34.8 26.14 1.029
16:20 1020 30.12 849 25.07 25.8 78.4 20 1.2 34.2 26.15 1.03
16:21 1020 30.12 849 25.07 25.8 78.5 19 1 33.8 26.18 1.031
16:22 1020 30.12 849 25.07 25.9 78.7 18 0.2 32.3 26.31 1.036
16:23 1020 30.12 849 25.07 26.1 78.9 17 -0.5 31.1 26.44 1.041
16:24 1020 30.12 849 25.07 26.3 79.3 17 -0.7 30.8 26.64 1.049
16:25 1020 30.12 849 25.07 26.4 79.6 18 0.3 32.6 26.78 1.054
16:26 1020 30.12 849 25.07 26.4 79.6 20 1.7 35.1 26.79 1.055
16:27 1020 30.12 849 25.07 26.5 79.6 17 -0.1 31.8 26.8 1.055
16:28 1020 30.12 849 25.07 26.4 79.6 17 -0.4 31.3 26.8 1.055
16:29 1020 30.12 849 25.07 26.5 79.6 17 -0 31.9 26.79 1.055
16:30 1020 30.12 849 25.07 26.5 79.7 18 0.3 32.6 26.83 1.056
16:31 1020 30.12 849 25.07 26.5 79.7 18 0.9 33.5 26.83 1.056
16:32 1020 30.12 849 25.07 26.5 79.7 17 -0.2 31.6 26.88 1.058
16:33 1020 30.12 849 25.07 26.6 80 18 0.5 32.9 26.96 1.061
16:34 1020 30.12 849 25.07 26.6 80 19 1.3 34.4 27 1.063
16:35 1020 30.12 849 25.07 26.6 79.9 16 -1.2 29.8 26.99 1.063
16:36 1020 30.12 849 25.07 26.7 80.1 18 0.7 33.3 27.04 1.065
16:37 1020 30.12 849 25.07 26.7 80 15 -2.1 28.2 27 1.063
16:38 1020 30.12 849 25.07 26.6 79.9 16 -1.3 29.6 26.98 1.062
16:39 1020 30.12 849 25.07 26.7 80 15 -2.1 28.1 27 1.063
16:40 1020 30.12 849 25.07 26.6 79.9 17 -0.5 31.2 26.97 1.062
16:41 1020 30.12 849 25.07 26.5 79.8 17 -0.2 31.6 26.9 1.059
16:42 1020 30.12 849 25.07 26.5 79.6 17 -0.7 30.8 26.83 1.056
16:43 1020 30.12 849 25.07 26.4 79.5 18 0.2 32.4 26.71 1.052
16:44 1020 30.12 849 25.07 26.3 79.4 18 0.3 32.5 26.68 1.05
16:45 1020 30.12 849 25.07 26.3 79.4 17 -0.3 31.4 26.68 1.05
16:46 1020 30.12 849 25.07 26.4 79.6 14 -3.4 26 26.84 1.057
16:47 1020 30.12 849 25.07 26.5 79.8 16 -1.4 29.4 26.88 1.058
16:48 1020 30.12 849 25.07 26.6 79.8 17 -0.6 30.9 26.91 1.059
16:49 1020 30.12 849 25.07 26.5 79.7 18 0.6 33.1 26.84 1.057
16:50 1020 30.12 849 25.07 26.3 79.3 15 -2 28.3 26.67 1.05
16:51 1020 30.12 849 25.07 26.3 79.3 16 -1.2 29.9 26.59 1.047
16:52 1020 30.12 849 25.07 26.3 79.3 17 -0.1 31.8 26.6 1.047
16:53 1020 30.12 849 25.07 26.1 79 18 0 32.1 26.46 1.042
16:54 1020 30.12 849 25.07 26 78.7 16 -1.5 29.3 26.32 1.036
16:55 1020 30.12 849 25.07 25.9 78.6 18 0.2 32.4 26.25 1.033
16:56 1020 30.12 849 25.07 25.8 78.4 18 -0.3 31.4 26.13 1.029
16:57 1020 30.12 849 25.07 25.7 78.2 18 -0.3 31.5 26.02 1.024
16:58 1020 30.12 849 25.07 25.6 78.1 16 -2.1 28.2 25.98 1.023
16:59 1020 30.12 849 25.07 25.6 78.2 17 -1 30.2 25.96 1.022
17:00 1020 30.12 849 25.07 25.5 78 19 0.1 32.2 25.88 1.019
17:01 1020 30.12 849 25.07 25.4 77.7 17 -1 30.1 25.74 1.013
17:02 1020 30.12 849 25.07 25.3 77.6 18 -0.2 31.7 25.7 1.012
17:03 1020 30.12 849 25.07 25.2 77.4 21 1.6 34.9 25.59 1.007
17:04 1020 30.12 849 25.07 25 77 23 2.9 37.2 25.37 0.999
17:05 1020 30.12 849 25.07 24.7 76.5 22 2 35.6 25.06 0.987
17:06 1020 30.12 849 25.07 24.6 76.3 22 2 35.5 24.87 0.979
17:07 1020 30.12 849 25.07 24.4 76 24 3 37.5 24.78 0.976
17:08 1020 30.12 849 25.07 24.4 75.8 23 2.1 35.8 24.72 0.973
17:09 1020 30.12 849 25.07 24.4 75.9 24 2.5 36.5 24.73 0.974
17:10 1020 30.12 849 25.07 24.3 75.8 24 2.9 37.1 24.65 0.97
17:11 1020 30.12 849 25.07 24.3 75.8 23 2.4 36.3 24.65 0.97
17:12 1020 30.12 849 25.07 24.4 75.9 25 3.6 38.5 24.66 0.971
17:13 1020 30.12 849 25.07 24.4 76 24 2.6 36.7 24.74 0.974
17:14 1020 30.12 849 25.07 24.5 76 24 2.9 37.2 24.78 0.976
17:15 1020 30.12 850 25.1 24.5 76 25 3.6 38.4 24.75 0.974
17:16 1020 30.12 850 25.1 24.4 75.9 27 4.3 39.7 24.7 0.972
17:17 1020 30.12 850 25.1 24.3 75.7 28 4.6 40.3 24.59 0.968
17:18 1020 30.12 850 25.1 24.1 75.3 27 4.2 39.6 24.38 0.96
17:19 1020 30.12 850 25.1 23.9 75 27 4.1 39.5 24.27 0.956
17:20 1020 30.12 850 25.1 23.8 74.8 28 4.6 40.3 24.08 0.948
17:21 1020 30.12 850 25.1 23.6 74.5 30 5.2 41.4 23.94 0.943
17:22 1020 30.12 850 25.1 23.5 74.3 25 2.5 36.5 23.8 0.937
17:23 1020 30.12 850 25.1 23.6 74.4 27 3.6 38.4 23.85 0.939
17:24 1020 30.12 850 25.1 23.5 74.4 28 4.4 40 23.81 0.937
17:25 1020 30.12 850 25.1 23.4 74.2 28 4.3 39.7 23.7 0.933
17:26 1020 30.12 850 25.1 23.4 74 29 4.4 39.9 23.58 0.928
17:27 1020 30.12 849 25.07 23.3 73.9 31 5.3 41.6 23.54 0.927
17:28 1020 30.12 849 25.07 23.1 73.6 31 5.4 41.7 23.37 0.92
17:29 1020 30.12 849 25.07 23 73.4 31 5.3 41.5 23.21 0.914
17:30 1020 30.12 849 25.07 22.9 73.3 32 5.4 41.8 23.13 0.911
17:31 1020 30.12 849 25.07 22.8 73.1 32 5.5 41.9 23.05 0.907
17:32 1020 30.12 849 25.07 22.7 72.9 32 5.6 42 22.97 0.904
17:33 1020 30.12 849 25.07 22.7 72.8 32 5.4 41.7 22.87 0.9
17:34 1020 30.12 849 25.07 22.6 72.6 33 5.5 41.8 22.78 0.897
17:35 1020 30.12 849 25.07 22.5 72.6 33 5.5 42 22.74 0.895
17:36 1020 30.12 849 25.07 22.5 72.5 31 4.7 40.4 22.71 0.894
17:37 1020 30.12 849 25.07 22.5 72.5 32 5.2 41.4 22.76 0.896
17:38 1020 30.12 849 25.07 22.5 72.5 32 5.4 41.7 22.76 0.896
17:39 1020 30.12 849 25.07 22.4 72.3 31 4.5 40.1 22.68 0.893
17:40 1020 30.12 849 25.07 22.4 72.2 33 5.4 41.8 22.62 0.891
17:41 1020 30.12 850 25.1 22.3 72.1 32 5.2 41.3 22.57 0.889
17:42 1020 30.12 850 25.1 22.2 72 33 5.6 42 22.49 0.885
17:43 1020 30.12 850 25.1 22.1 71.9 33 5.2 41.4 22.41 0.882
17:44 1020 30.12 850 25.1 22.1 71.7 33 5.2 41.4 22.37 0.881
17:45 1020 30.12 850 25.1 22 71.6 33 5.3 41.5 22.29 0.878
17:46 1020 30.12 850 25.1 21.9 71.4 34 5.7 42.2 22.26 0.876
17:47 1020 30.12 850 25.1 21.8 71.3 33 5.1 41.2 22.16 0.872
17:48 1020 30.12 850 25.1 21.8 71.3 34 5.3 41.5 22.11 0.87
17:49 1020 30.12 850 25.1 21.8 71.2 33 5.2 41.3 22.12 0.871
17:50 1020 30.12 850 25.1 21.7 71.1 36 6.3 43.3 22.08 0.869
17:51 1021 30.15 850 25.1 21.6 70.8 40 7.4 45.3 21.95 0.864
17:52 1021 30.15 850 25.1 21.4 70.5 43 8.4 47.2 21.8 0.858
17:53 1021 30.15 850 25.1 21.1 69.9 44 8.5 47.2 21.55 0.848
17:54 1020 30.12 850 25.1 20.9 69.5 37 5.8 42.5 21.23 0.836
17:55 1020 30.12 850 25.1 20.9 69.5 39 6.4 43.6 21.21 0.835
17:56 1020 30.12 850 25.1 20.9 69.6 37 5.9 42.6 21.21 0.835
17:57 1020 30.12 850 25.1 20.9 69.5 36 5.5 41.8 21.21 0.835
17:58 1020 30.12 850 25.1 21 69.7 38 6.2 43.2 21.25 0.837
17:59 1020 30.12 850 25.1 21 69.8 37 6 42.8 21.35 0.841
18:00 1020 30.12 850 25.1 21 69.9 37 5.9 42.6 21.38 0.842
18:01 1020 30.12 850 25.1 21 69.9 38 6.2 43.2 21.35 0.841
18:02 1020 30.12 850 25.1 21 69.9 38 6.2 43.2 21.36 0.841
18:03 1020 30.12 850 25.1 21 69.8 37 6 42.9 21.33 0.84
18:04 1020 30.12 850 25.1 21 69.8 38 6.3 43.4 21.3 0.839
18:05 1020 30.12 850 25.1 21 69.7 39 6.5 43.7 21.24 0.836
18:06 1020 30.12 850 25.1 20.9 69.6 39 6.7 44.1 21.21 0.835
18:07 1020 30.12 850 25.1 20.8 69.5 41 7.1 44.8 21.09 0.83
18:08 1020 30.12 850 25.1 20.8 69.4 39 6.4 43.6 21 0.827
18:09 1020 30.12 850 25.1 20.7 69.3 38 6 42.7 21.01 0.827
18:10 1020 30.12 850 25.1 20.8 69.4 38 5.9 42.7 21.01 0.827
18:11 1021 30.15 850 25.1 20.8 69.4 38 6.1 43.1 21.06 0.829
18:12 1020 30.12 850 25.1 20.6 69.2 43 7.9 46.3 21.01 0.827
18:13 1021 30.15 850 25.1 20.1 68.2 49 9.1 48.3 20.51 0.807
18:14 1021 30.15 850 25.1 19.7 67.4 48 8.5 47.4 20.05 0.789
18:15 1021 30.15 850 25.1 19.4 66.9 43 6.5 43.7 19.74 0.777
18:16 1021 30.15 850 25.1 19.4 67 39 5.3 41.5 19.71 0.776
18:17 1021 30.15 850 25.1 19.8 67.6 36 4.6 40.3 20.06 0.79
18:18 1021 30.15 850 25.1 20.1 68.3 35 4.3 39.7 20.46 0.806
18:19 1021 30.15 850 25.1 20.4 68.7 39 6.1 43 20.67 0.814
18:20 1021 30.15 850 25.1 20.3 68.6 34 4.2 39.6 20.79 0.819
18:21 1021 30.15 850 25.1 20.4 68.8 37 5.4 41.8 20.77 0.818
18:22 1021 30.15 850 25.1 20.5 68.9 35 4.8 40.7 20.85 0.821
18:23 1021 30.15 850 25.1 20.6 69.1 34 4.4 40 20.94 0.824
18:24 1021 30.15 850 25.1 20.8 69.5 33 4.3 39.7 21.11 0.831
18:25 1021 30.15 850 25.1 20.9 69.7 33 4.3 39.7 21.29 0.838
18:26 1021 30.15 850 25.1 21.1 69.9 32 4.1 39.4 21.39 0.842
18:27 1021 30.15 850 25.1 21.2 70.2 33 4.3 39.8 21.54 0.848
18:28 1021 30.15 850 25.1 21.2 70.2 31 3.5 38.4 21.59 0.85
18:29 1021 30.15 850 25.1 21.4 70.4 30 3.3 37.9 21.68 0.854
18:30 1021 30.15 850 25.1 21.5 70.7 27 1.9 35.4 21.79 0.858
18:31 1021 30.15 850 25.1 21.7 71.1 31 4.1 39.4 22.07 0.869
18:32 1021 30.15 850 25.1 21.6 70.9 29 3 37.5 22.01 0.867
18:33 1021 30.15 850 25.1 21.6 70.9 29 3.1 37.6 21.98 0.865
18:34 1021 30.15 850 25.1 21.7 71 32 4.4 39.8 22.01 0.867
18:35 1021 30.15 850 25.1 21.7 71 32 4.6 40.4 22.03 0.867
18:36 1021 30.15 850 25.1 21.7 71 36 6 42.7 21.99 0.866
18:37 1021 30.15 850 25.1 21.5 70.6 37 6.4 43.5 21.94 0.864
18:38 1021 30.15 850 25.1 21.2 70.2 37 6.3 43.4 21.76 0.857
18:39 1021 30.15 850 25.1 21 69.7 38 6.3 43.3 21.5 0.846
18:40 1021 30.15 850 25.1 20.8 69.4 38 6.1 43 21.24 0.836
18:41 1021 30.15 850 25.1 20.7 69.2 40 6.6 43.9 21.03 0.828
18:42 1021 30.15 850 25.1 20.4 68.8 38 5.7 42.3 20.89 0.822
18:43 1021 30.15 850 25.1 20.3 68.6 40 6.6 43.9 20.69 0.815
18:44 1021 30.15 850 25.1 20.2 68.4 41 6.8 44.2 20.55 0.809
18:45 1021 30.15 850 25.1 20 68 42 6.8 44.3 20.37 0.802
18:46 1021 30.15 850 25.1 19.9 67.7 42 6.7 44 20.19 0.795
18:47 1021 30.15 850 25.1 19.7 67.5 41 6.1 43 20.03 0.789
18:48 1021 30.15 850 25.1 19.7 67.4 40 5.8 42.4 19.92 0.784
18:49 1021 30.15 850 25.1 19.5 67.2 42 6.4 43.6 19.88 0.783
18:50 1021 30.15 850 25.1 19.4 66.8 41 5.9 42.6 19.69 0.775
18:51 1021 30.15 850 25.1 19.3 66.7 40 5.5 41.8 19.6 0.772
18:52 1021 30.15 850 25.1 19.3 66.7 41 6 42.8 19.59 0.771
18:53 1021 30.15 850 25.1 19.3 66.7 43 6.7 44.1 19.56 0.77
18:54 1021 30.15 850 25.1 19.2 66.5 41 5.7 42.3 19.45 0.766
18:55 1021 30.15 850 25.1 19.1 66.3 38 4.6 40.2 19.35 0.762
18:56 1021 30.15 850 25.1 19.1 66.3 40 5.2 41.4 19.34 0.761
18:57 1021 30.15 850 25.1 19 66.3 39 5 41.1 19.3 0.76
18:58 1021 30.15 850 25.1 19 66.2 42 5.8 42.5 19.25 0.758
18:59 1021 30.15 850 25.1 18.8 65.9 40 5 41 19.13 0.753
19:00 1021 30.15 850 25.1 18.7 65.6 39 4.7 40.5 18.94 0.746
19:01 1021 30.15 850 25.1 18.6 65.5 38 4.2 39.5 18.88 0.743
19:02 1021 30.15 850 25.1 18.6 65.6 43 5.8 42.4 18.94 0.746
19:03 1021 30.15 850 25.1 18.4 65.2 41 5.1 41.2 18.76 0.739
19:04 1021 30.15 850 25.1 18.2 64.8 42 5.3 41.6 18.54 0.73
19:05 1021 30.15 850 25.1 18 64.4 41 4.7 40.5 18.29 0.72
19:06 1021 30.15 850 25.1 17.9 64.1 43 5.1 41.2 18.15 0.715
19:07 1021 30.15 850 25.1 17.9 64.1 42 5 41 18.14 0.714
19:08 1021 30.15 850 25.1 17.7 63.8 42 4.7 40.5 17.99 0.708
19:09 1021 30.15 850 25.1 17.6 63.8 42 4.6 40.3 17.93 0.706
19:10 1021 30.15 850 25.1 17.6 63.6 46 5.8 42.4 17.88 0.704
19:11 1021 30.15 850 25.1 17.2 63 45 5.4 41.8 17.55 0.691
19:12 1021 30.15 850 25.1 16.9 62.5 46 5.3 41.6 17.23 0.678
19:13 1021 30.15 850 25.1 16.8 62.3 43 4.2 39.6 17.1 0.673
19:14 1021 30.15 850 25.1 16.8 62.3 46 5.3 41.5 17.09 0.673
19:15 1021 30.15 850 25.1 16.4 61.5 48 5.6 42.1 16.75 0.659
19:16 1021 30.15 850 25.1 16.1 61 50 5.9 42.6 16.4 0.646
19:17 1021 30.15 850 25.1 15.8 60.4 52 5.9 42.7 16.11 0.634
19:18 1021 30.15 850 25.1 15.5 59.9 51 5.5 41.9 15.83 0.623
19:19 1021 30.15 850 25.1 15.5 59.8 51 5.6 42 15.75 0.62
19:20 1021 30.15 850 25.1 15.4 59.8 51 5.4 41.8 15.72 0.619
19:21 1021 30.15 850 25.1 15.4 59.6 50 5 41 15.66 0.617
19:22 1021 30.15 850 25.1 15.3 59.5 50 5 41 15.58 0.613
19:23 1021 30.15 850 25.1 15.3 59.5 47 4 39.2 15.55 0.612
19:24 1021 30.15 850 25.1 15.6 60 47 4.5 40.2 15.84 0.624
19:25 1021 30.15 850 25.1 15.6 60.1 48 4.8 40.7 15.94 0.628
19:26 1021 30.15 850 25.1 15.4 59.7 48 4.6 40.2 15.74 0.62
19:27 1021 30.15 850 25.1 15.3 59.6 44 3.1 37.6 15.66 0.617
19:28 1021 30.15 850 25.1 15.7 60.2 45 3.9 39 15.84 0.624
19:29 1021 30.15 850 25.1 15.7 60.3 39 1.8 35.2 15.96 0.628
19:30 1021 30.15 850 25.1 16.2 61.2 37 1.8 35.2 16.38 0.645
19:31 1021 30.15 850 25.1 16.9 62.4 36 1.9 35.4 17.06 0.672
19:32 1021 30.15 850 25.1 17.4 63.2 34 1.3 34.4 17.58 0.692
19:33 1021 30.15 850 25.1 17.8 64 37 3.2 37.7 18.05 0.711
19:34 1021 30.15 850 25.1 17.4 63.3 32 0.8 33.4 17.84 0.702
19:35 1021 30.15 850 25.1 17.6 63.7 32 0.7 33.2 17.83 0.702
19:36 1021 30.15 850 25.1 17.8 64 31 0.5 32.9 18.02 0.709
19:37 1021 30.15 850 25.1 18.1 64.5 34 2 35.7 18.31 0.721
19:38 1021 30.15 850 25.1 18.1 64.6 30 0.5 32.8 18.41 0.725
19:39 1021 30.15 850 25.1 18.3 65 33 1.7 35.1 18.62 0.733
19:40 1021 30.15 851 25.13 18.2 64.7 34 2.2 36 18.57 0.731
19:41 1021 30.15 850 25.1 17.9 64.2 34 2 35.6 18.29 0.72
19:42 1021 30.15 851 25.13 17.6 63.8 33 1.5 34.7 18.05 0.711
19:43 1021 30.15 850 25.1 17.5 63.5 35 1.8 35.2 17.86 0.703
19:44 1021 30.15 850 25.1 17.5 63.4 34 1.7 35 17.81 0.701
19:45 1021 30.15 851 25.13 17.5 63.5 33 1.1 34 17.81 0.701
19:46 1021 30.15 851 25.13 17.6 63.6 32 0.7 33.2 17.88 0.704
19:47 1021 30.15 851 25.13 17.7 63.8 33 1.2 34.2 17.97 0.707
19:48 1021 30.15 851 25.13 17.7 63.9 33 1.2 34.2 18.03 0.71
19:49 1021 30.15 851 25.13 17.6 63.7 34 1.5 34.7 17.95 0.707
19:50 1021 30.15 851 25.13 17.4 63.2 36 2.4 36.3 17.75 0.699
19:51 1021 30.15 851 25.13 16.9 62.5 37 2.3 36.1 17.34 0.683
19:52 1021 30.15 851 25.13 16.5 61.6 40 3.1 37.5 16.92 0.666
19:53 1021 30.15 851 25.13 16 60.8 42 3.3 37.9 16.43 0.647
19:54 1021 30.15 851 25.13 15.6 60 44 3.3 38 15.97 0.629
19:55 1021 30.15 851 25.13 15.2 59.4 44 3.1 37.6 15.6 0.614
19:56 1021 30.15 851 25.13 15.1 59.1 45 3.3 37.9 15.4 0.606
19:57 1021 30.15 851 25.13 15 58.9 45 3.3 38 15.31 0.603
19:58 1022 30.18 851 25.13 14.8 58.6 46 3.4 38.1 15.17 0.597
19:59 1022 30.18 851 25.13 14.6 58.3 47 3.5 38.3 14.97 0.589
20:00 1022 30.18 851 25.13 14.5 58.1 46 3.2 37.8 14.83 0.584
20:01 1022 30.18 851 25.13 14.6 58.4 44 2.5 36.5 14.93 0.588
20:02 1022 30.18 851 25.13 15 58.9 44 2.9 37.2 15.24 0.6
20:03 1022 30.18 851 25.13 15 58.9 46 3.4 38.1 15.3 0.602
20:04 1022 30.18 851 25.13 14.9 58.7 45 3.2 37.7 15.21 0.599
20:05 1022 30.18 851 25.13 14.9 58.7 46 3.6 38.4 15.23 0.6
20:06 1022 30.18 851 25.13 14.7 58.5 46 3.3 37.9 15.14 0.596
20:07 1022 30.18 851 25.13 14.7 58.5 47 3.5 38.3 15.13 0.596
20:08 1022 30.18 851 25.13 14.7 58.4 47 3.6 38.4 15.07 0.593
20:09 1022 30.18 851 25.13 14.5 58 48 3.8 38.8 14.83 0.584
20:10 1022 30.18 851 25.13 14.3 57.7 50 4 39.1 14.66 0.577
20:11 1022 30.18 851 25.13 14.3 57.8 46 2.9 37.2 14.67 0.578
20:12 1022 30.18 851 25.13 14.5 58.2 47 3.4 38.2 14.9 0.587
20:13 1022 30.18 851 25.13 14.5 58.1 46 2.9 37.3 14.87 0.585
20:14 1022 30.18 851 25.13 14.6 58.3 46 3.3 37.9 14.95 0.589
20:15 1022 30.18 851 25.13 14.5 58.1 48 3.6 38.5 14.88 0.586
20:16 1022 30.18 851 25.13 14.3 57.8 46 3 37.4 14.69 0.578
20:17 1022 30.18 851 25.13 14.5 58.1 44 2.5 36.5 14.8 0.583
20:18 1022 30.18 851 25.13 14.9 58.7 43 2.6 36.7 15.12 0.595
20:19 1022 30.18 851 25.13 15 59.1 44 3.1 37.5 15.36 0.605
20:20 1022 30.18 851 25.13 15 59 45 3.1 37.6 15.33 0.604
20:21 1022 30.18 851 25.13 14.9 58.8 46 3.6 38.5 15.26 0.601
20:22 1022 30.18 851 25.13 14.7 58.4 46 3.2 37.7 15.13 0.596
20:23 1022 30.18 851 25.13 14.6 58.3 47 3.5 38.3 14.97 0.589
20:24 1022 30.18 851 25.13 14.6 58.2 46 3.2 37.7 14.93 0.588
20:25 1022 30.18 851 25.13 14.6 58.2 45 3 37.4 14.89 0.586
20:26 1022 30.18 851 25.13 14.6 58.3 46 3.3 37.9 14.97 0.589
20:27 1022 30.18 851 25.13 14.6 58.2 46 3.3 37.9 14.94 0.588
20:28 1022 30.18 851 25.13 14.5 58.1 47 3.3 38 14.92 0.587
20:29 1022 30.18 851 25.13 14.4 58 45 2.9 37.2 14.83 0.584
20:30 1022 30.18 851 25.13 14.5 58 46 3 37.4 14.82 0.583
20:31 1022 30.18 851 25.13 14.5 58.1 47 3.3 37.9 14.85 0.585
20:32 1022 30.18 851 25.13 14.5 58.2 46 3.2 37.8 14.9 0.587
20:33 1022 30.18 851 25.13 14.5 58.1 45 2.9 37.2 14.87 0.585
20:34 1022 30.18 851 25.13 14.6 58.2 46 3.2 37.8 14.89 0.586
20:35 1022 30.18 851 25.13 14.5 58.2 46 3.2 37.7 14.89 0.586
20:36 1022 30.18 851 25.13 14.5 58 46 3.2 37.7 14.82 0.583
20:37 1022 30.18 851 25.13 14.4 57.8 47 3.2 37.7 14.75 0.581
20:38 1022 30.18 851 25.13 14.3 57.8 47 3.3 37.9 14.68 0.578
20:39 1022 30.18 851 25.13 14.3 57.7 47 3.2 37.7 14.64 0.576
20:40 1022 30.18 851 25.13 14.2 57.6 48 3.4 38.1 14.61 0.575
20:41 1022 30.18 851 25.13 14.1 57.4 48 3.4 38.1 14.52 0.572
20:42 1022 30.18 851 25.13 14 57.2 48 3.4 38.1 14.37 0.566
20:43 1022 30.18 851 25.13 14 57.1 49 3.4 38.1 14.3 0.563
20:44 1022 30.18 851 25.13 13.9 57 48 3.3 37.9 14.25 0.561
20:45 1022 30.18 851 25.13 13.9 57.1 48 3.2 37.7 14.25 0.561
20:46 1022 30.18 851 25.13 13.9 56.9 48 3.2 37.8 14.23 0.56
20:47 1022 30.18 851 25.13 13.9 56.9 49 3.3 37.9 14.19 0.559
20:48 1022 30.18 852 25.16 13.8 56.8 49 3.3 37.9 14.17 0.558
20:49 1022 30.18 852 25.16 13.8 56.8 49 3.3 37.9 14.12 0.556
20:50 1022 30.18 852 25.16 13.8 56.8 49 3.3 37.9 14.14 0.557
20:51 1022 30.18 852 25.16 13.7 56.7 49 3.2 37.7 14.09 0.555
20:52 1022 30.18 852 25.16 13.7 56.6 50 3.4 38.2 14.08 0.554
20:53 1022 30.18 852 25.16 13.6 56.5 50 3.5 38.3 13.99 0.551
20:54 1022 30.18 852 25.16 13.5 56.3 51 3.5 38.3 13.86 0.546
20:55 1022 30.18 852 25.16 13.3 56 51 3.5 38.3 13.74 0.541
20:56 1022 30.18 852 25.16 13.2 55.8 51 3.4 38.2 13.63 0.537
20:57 1022 30.18 852 25.16 13.2 55.7 51 3.4 38.2 13.56 0.534
20:58 1022 30.18 852 25.16 13.1 55.6 52 3.5 38.3 13.5 0.531
20:59 1023 30.21 852 25.16 13.1 55.5 52 3.4 38.2 13.45 0.53
21:00 1023 30.21 852 25.16 13.1 55.5 51 3.1 37.6 13.45 0.53
21:01 1023 30.21 852 25.16 13.2 55.7 50 3.1 37.5 13.49 0.531
21:02 1023 30.21 852 25.16 13.2 55.8 50 3 37.5 13.59 0.535
21:03 1023 30.21 852 25.16 13.2 55.8 50 3.2 37.8 13.62 0.536
21:04 1023 30.21 852 25.16 13.4 56.1 49 2.9 37.2 13.76 0.542
21:05 1023 30.21 852 25.16 13.5 56.3 49 3 37.3 13.85 0.545
21:06 1023 30.21 852 25.16 13.5 56.4 48 2.9 37.2 13.95 0.549
21:07 1023 30.21 852 25.16 13.6 56.5 48 2.9 37.2 13.94 0.549
21:08 1023 30.21 852 25.16 13.6 56.4 47 2.6 36.7 13.96 0.55
21:09 1023 30.21 852 25.16 13.6 56.4 48 2.8 37.1 13.95 0.549
21:10 1023 30.21 852 25.16 13.5 56.3 49 3.1 37.6 13.89 0.547
21:11 1023 30.21 852 25.16 13.3 56 50 3.1 37.6 13.76 0.542
21:12 1023 30.21 852 25.16 13.2 55.7 50 3.1 37.6 13.55 0.533
21:13 1023 30.21 852 25.16 13.1 55.7 49 2.7 36.9 13.51 0.532
21:14 1023 30.21 852 25.16 13.2 55.7 48 2.6 36.7 13.56 0.534
21:15 1023 30.21 852 25.16 13.2 55.8 49 2.8 37.1 13.56 0.534
21:16 1023 30.21 852 25.16 13.1 55.6 50 2.9 37.2 13.46 0.53
21:17 1023 30.21 852 25.16 13 55.3 50 3 37.3 13.33 0.525
21:18 1023 30.21 852 25.16 12.9 55.1 50 2.8 37.1 13.21 0.52
21:19 1023 30.21 852 25.16 12.8 55 50 2.8 37 13.16 0.518
21:20 1023 30.21 852 25.16 12.8 55 50 2.6 36.7 13.13 0.517
21:21 1023 30.21 852 25.16 12.8 55 50 2.8 37 13.19 0.519
21:22 1023 30.21 852 25.16 12.9 55.1 50 2.8 37 13.2 0.52
21:23 1023 30.21 852 25.16 12.9 55.1 50 2.8 37 13.21 0.52
21:24 1023 30.21 852 25.16 12.8 55 51 2.9 37.3 13.12 0.517
21:25 1023 30.21 852 25.16 12.7 54.8 51 2.9 37.2 13.02 0.513
21:26 1023 30.21 852 25.16 12.6 54.7 51 2.8 37.1 13 0.512
21:27 1023 30.21 852 25.16 12.6 54.6 50 2.6 36.7 12.96 0.51
21:28 1023 30.21 852 25.16 12.6 54.6 52 3.1 37.5 12.92 0.509
21:29 1023 30.21 852 25.16 12.5 54.4 52 2.9 37.3 12.81 0.504
21:30 1023 30.21 852 25.16 12.4 54.2 55 3.5 38.4 12.71 0.5
21:31 1023 30.21 852 25.16 12.1 53.9 54 3.2 37.8 12.52 0.493
21:32 1023 30.21 852 25.16 12.1 53.7 54 3 37.4 12.42 0.489
21:33 1023 30.21 852 25.16 12.1 53.7 55 3.4 38.1 12.39 0.488
21:34 1023 30.21 852 25.16 11.9 53.4 56 3.5 38.4 12.21 0.481
21:35 1023 30.21 852 25.16 11.7 53 57 3.6 38.4 12.04 0.474
21:36 1023 30.21 852 25.16 11.5 52.7 59 3.8 38.8 11.87 0.467
21:37 1023 30.21 852 25.16 11.2 52.2 60 3.8 38.9 11.63 0.458
21:38 1023 30.21 853 25.19 11 51.8 61 3.8 38.8 11.37 0.448
21:39 1023 30.21 853 25.19 10.8 51.4 62 3.8 38.9 11.14 0.439
21:40 1023 30.21 853 25.19 10.5 50.9 63 3.9 39 10.92 0.43
21:41 1023 30.21 853 25.19 10.3 50.5 64 3.7 38.7 10.62 0.418
21:42 1023 30.21 853 25.19 10.1 50.2 64 3.7 38.6 10.45 0.411
21:43 1023 30.21 853 25.19 10 50.1 65 3.8 38.9 10.38 0.409
21:44 1023 30.21 853 25.19 9.9 49.8 67 4 39.3 10.29 0.405
21:45 1024 30.24 853 25.19 9.8 49.6 68 4.2 39.6 10.16 0.4
21:46 1024 30.24 853 25.19 9.6 49.3 69 4.3 39.7 10.04 0.395
21:47 1024 30.24 853 25.19 9.6 49.2 69 4.3 39.7 9.94 0.391
21:48 1024 30.24 853 25.19 9.5 49.1 66 3.5 38.3 9.93 0.391
21:49 1024 30.24 853 25.19 9.8 49.7 65 3.6 38.5 10.18 0.401
21:50 1024 30.24 853 25.19 10.2 50.3 66 4.2 39.6 10.5 0.413
21:51 1024 30.24 853 25.19 10.2 50.3 66 4.2 39.6 10.51 0.414
21:52 1024 30.24 853 25.19 10.2 50.3 68 4.5 40.1 10.55 0.415
21:53 1024 30.24 853 25.19 10.2 50.3 67 4.3 39.7 10.6 0.417
21:54 1024 30.24 853 25.19 10.3 50.5 66 4.3 39.7 10.67 0.42
21:55 1024 30.24 853 25.19 10.3 50.6 66 4.3 39.8 10.74 0.423
21:56 1024 30.24 853 25.19 10.4 50.8 66 4.4 39.9 10.79 0.425
21:57 1024 30.24 853 25.19 10.5 51 66 4.4 39.9 10.92 0.43
21:58 1024 30.24 853 25.19 10.7 51.2 63 4 39.2 10.99 0.433
21:59 1024 30.24 853 25.19 10.7 51.2 60 3.3 38 11.13 0.438
22:00 1024 30.24 853 25.19 11 51.7 59 3.3 38 11.43 0.45
22:01 1024 30.24 853 25.19 11.4 52.4 58 3.5 38.4 11.67 0.459
22:02 1024 30.24 853 25.19 11.5 52.6 58 3.7 38.6 11.81 0.465
22:03 1024 30.24 853 25.19 11.6 52.9 58 3.8 38.8 11.94 0.47
22:04 1024 30.24 853 25.19 11.7 53 58 3.8 38.8 12.02 0.473
22:05 1024 30.24 853 25.19 11.8 53.2 54 2.9 37.2 12.06 0.475
22:06 1024 30.24 853 25.19 12 53.7 55 3.3 38 12.25 0.482
22:07 1024 30.24 853 25.19 12.1 53.8 57 3.9 39.1 12.36 0.487
22:08 1024 30.24 853 25.19 12 53.5 58 4.1 39.4 12.28 0.483
22:09 1024 30.24 853 25.19 11.8 53.2 57 3.7 38.6 12.14 0.478
22:10 1024 30.24 853 25.19 11.8 53.2 58 3.9 39 12.1 0.476
22:11 1024 30.24 853 25.19 11.8 53.3 59 4.1 39.4 12.16 0.479
22:12 1024 30.24 853 25.19 11.8 53.2 60 4.4 39.9 12.11 0.477
22:13 1024 30.24 853 25.19 11.7 53 63 4.9 40.9 12.01 0.473
22:14 1024 30.24 853 25.19 11.4 52.5 64 4.9 40.8 11.74 0.462
22:15 1024 30.24 853 25.19 11.1 52 65 4.8 40.7 11.52 0.454
22:16 1024 30.24 853 25.19 11 51.8 63 4.4 39.8 11.37 0.448
22:17 1024 30.24 853 25.19 11.1 51.9 62 4.2 39.6 11.44 0.45
22:18 1024 30.24 853 25.19 11.2 52.2 62 4.2 39.5 11.52 0.454
22:19 1024 30.24 853 25.19 11.3 52.3 63 4.5 40 11.58 0.456
22:20 1024 30.24 853 25.19 11.2 52.2 65 4.8 40.7 11.55 0.455
22:21 1024 30.24 853 25.19 11.1 51.9 65 4.9 40.8 11.41 0.449
22:22 1024 30.24 853 25.19 10.9 51.7 66 4.9 40.9 11.28 0.444
22:23 1024 30.24 853 25.19 10.8 51.4 67 4.9 40.8 11.18 0.44
22:24 1024 30.24 853 25.19 10.8 51.4 66 4.7 40.5 11.07 0.436
22:25 1024 30.24 853 25.19 10.7 51.3 66 4.7 40.5 11.07 0.436
22:26 1024 30.24 853 25.19 10.7 51.2 67 4.7 40.5 11.02 0.434
22:27 1024 30.24 853 25.19 10.6 51.1 67 4.9 40.8 10.98 0.432
22:28 1024 30.24 853 25.19 10.5 50.9 69 5 41.1 10.91 0.43
22:29 1024 30.24 853 25.19 10.3 50.6 69 5 41 10.73 0.422
22:30 1024 30.24 853 25.19 10.2 50.3 70 4.9 40.8 10.56 0.416
22:31 1024 30.24 853 25.19 10.1 50.2 70 4.9 40.8 10.46 0.412
22:32 1024 30.24 853 25.19 10 50.1 70 4.8 40.7 10.46 0.412
22:33 1024 30.24 853 25.19 10 50.1 71 5 40.9 10.46 0.412
22:34 1024 30.24 853 25.19 10 50 71 5 40.9 10.41 0.41
22:35 1024 30.24 853 25.19 10 49.9 71 5 40.9 10.38 0.409
22:36 1024 30.24 853 25.19 10 49.9 71 5 41 10.37 0.408
22:37 1024 30.24 853 25.19 10 50 71 5.1 41.1 10.38 0.409
22:38 1024 30.24 853 25.19 10 50 71 5.1 41.1 10.42 0.41
22:39 1024 30.24 853 25.19 10.1 50.1 71 5 41 10.48 0.413
22:40 1024 30.24 853 25.19 10.2 50.3 70 5 41 10.53 0.415
22:41 1024 30.24 853 25.19 10.2 50.4 69 4.9 40.9 10.61 0.418
22:42 1024 30.24 853 25.19 10.3 50.5 69 5 40.9 10.68 0.42
22:43 1024 30.24 853 25.19 10.4 50.7 69 4.9 40.8 10.76 0.424
22:44 1024 30.24 853 25.19 10.5 50.8 69 5.1 41.3 10.88 0.428
22:45 1024 30.24 853 25.19 10.5 50.8 70 5.2 41.4 10.9 0.429
22:46 1024 30.24 853 25.19 10.5 50.9 70 5.3 41.6 10.9 0.429
22:47 1024 30.24 853 25.19 10.5 51 70 5.3 41.6 10.88 0.428
22:48 1024 30.24 853 25.19 10.6 51 70 5.4 41.7 10.95 0.431
22:49 1024 30.24 853 25.19 10.6 51 70 5.4 41.7 10.96 0.431
22:50 1024 30.24 853 25.19 10.6 51.1 70 5.4 41.8 10.98 0.432
22:51 1024 30.24 853 25.19 10.6 51.1 70 5.5 41.9 11.02 0.434
22:52 1024 30.24 853 25.19 10.6 51.1 70 5.4 41.6 11.03 0.434
22:53 1024 30.24 853 25.19 10.7 51.2 69 5.2 41.4 11.06 0.435
22:54 1024 30.24 853 25.19 10.7 51.3 68 5.1 41.2 11.12 0.438
22:55 1024 30.24 853 25.19 10.8 51.5 67 5 41 11.16 0.439
22:56 1024 30.24 853 25.19 10.9 51.6 68 5.3 41.5 11.28 0.444
22:57 1024 30.24 853 25.19 11 51.7 67 5.1 41.2 11.31 0.445
22:58 1024 30.24 853 25.19 11 51.8 67 5.1 41.1 11.38 0.448
22:59 1024 30.24 853 25.19 11.1 51.9 68 5.4 41.6 11.44 0.45
23:00 1024 30.24 853 25.19 11.1 51.9 69 5.6 42 11.43 0.45
23:01 1024 30.24 853 25.19 10.9 51.7 69 5.4 41.8 11.31 0.445
23:02 1024 30.24 853 25.19 10.8 51.5 69 5.4 41.7 11.21 0.441
23:03 1024 30.24 853 25.19 10.8 51.4 67 5 41.1 11.18 0.44
23:04 1024 30.24 853 25.19 10.9 51.6 68 5.2 41.3 11.18 0.44
23:05 1024 30.24 853 25.19 10.8 51.5 68 5.2 41.4 11.19 0.441
23:06 1024 30.24 853 25.19 10.8 51.5 68 5.1 41.2 11.18 0.44
23:07 1024 30.24 854 25.22 10.8 51.5 66 4.7 40.5 11.17 0.44
23:08 1024 30.24 853 25.19 11 51.8 64 4.5 40 11.31 0.445
23:09 1024 30.24 854 25.22 11.1 52 65 4.7 40.5 11.4 0.449
23:10 1024 30.24 853 25.19 11.2 52.1 64 4.7 40.5 11.42 0.45
23:11 1024 30.24 854 25.22 11.2 52.1 64 4.6 40.3 11.43 0.45
23:12 1024 30.24 854 25.22 11.2 52.1 63 4.5 40.1 11.48 0.452
23:13 1024 30.24 854 25.22 11.2 52.2 64 4.7 40.4 11.49 0.452
23:14 1024 30.24 854 25.22 11.2 52.1 63 4.5 40.1 11.47 0.452
23:15 1024 30.24 854 25.22 11.2 52.2 63 4.5 40.1 11.48 0.452
23:16 1024 30.24 854 25.22 11.2 52.1 65 4.8 40.6 11.46 0.451
23:17 1024 30.24 854 25.22 11 51.8 65 4.7 40.5 11.35 0.447
23:18 1024 30.24 854 25.22 10.9 51.6 65 4.6 40.3 11.25 0.443
23:19 1024 30.24 854 25.22 10.8 51.5 65 4.6 40.3 11.18 0.44
23:20 1024 30.24 854 25.22 10.8 51.4 65 4.5 40.1 11.12 0.438
23:21 1024 30.24 854 25.22 10.7 51.3 66 4.6 40.2 11.05 0.435
23:22 1024 30.24 854 25.22 10.5 51 67 4.6 40.4 10.9 0.429
23:23 1024 30.24 854 25.22 10.3 50.6 68 4.7 40.4 10.66 0.42
23:24 1024 30.24 854 25.22 10.1 50.2 68 4.6 40.3 10.48 0.413
23:25 1024 30.24 854 25.22 10 49.9 68 4.4 39.9 10.31 0.406
23:26 1024 30.24 854 25.22 9.9 49.8 68 4.2 39.6 10.22 0.402
23:27 1024 30.24 854 25.22 9.9 49.8 67 4.1 39.4 10.23 0.403
23:28 1024 30.24 854 25.22 9.9 49.9 65 3.8 38.8 10.26 0.404
23:29 1025 30.27 854 25.22 10.1 50.1 65 3.8 38.8 10.41 0.41
23:30 1025 30.27 854 25.22 10.2 50.3 64 3.8 38.8 10.47 0.412
23:31 1025 30.27 854 25.22 10.3 50.5 63 3.5 38.4 10.68 0.42
23:32 1025 30.27 854 25.22 10.5 50.8 62 3.5 38.3 10.81 0.426
23:33 1025 30.27 854 25.22 10.6 51 62 3.6 38.6 10.91 0.43
23:34 1025 30.27 854 25.22 10.5 50.9 63 3.9 39 10.86 0.428
23:35 1025 30.27 854 25.22 10.4 50.7 64 3.9 39 10.73 0.422
23:36 1025 30.27 854 25.22 10.3 50.5 63 3.5 38.3 10.6 0.417
23:37 1025 30.27 854 25.22 10.3 50.5 62 3.4 38.2 10.65 0.419
23:38 1025 30.27 854 25.22 10.4 50.6 63 3.6 38.6 10.69 0.421
23:39 1025 30.27 854 25.22 10.3 50.6 62 3.4 38.1 10.66 0.42
23:40 1025 30.27 854 25.22 10.3 50.6 63 3.7 38.7 10.66 0.42
23:41 1025 30.27 854 25.22 10.3 50.5 65 3.9 39.1 10.6 0.417
23:42 1025 30.27 854 25.22 10 50.1 65 3.8 38.8 10.44 0.411
23:43 1025 30.27 854 25.22 9.8 49.7 66 3.7 38.7 10.24 0.403
23:44 1025 30.27 854 25.22 9.8 49.7 65 3.6 38.5 10.17 0.4
23:45 1024 30.24 854 25.22 9.8 49.7 63 3.2 37.8 10.15 0.4
23:46 1024 30.24 854 25.22 9.9 49.8 63 3.2 37.8 10.24 0.403
23:47 1024 30.24 854 25.22 10 50 62 3.2 37.8 10.36 0.408
23:48 1024 30.24 854 25.22 10.1 50.1 63 3.3 38 10.39 0.409
23:49 1024 30.24 854 25.22 10 50 62 3.2 37.7 10.37 0.408
23:50 1024 30.24 854 25.22 10 50.1 61 3 37.4 10.39 0.409
23:51 1024 30.24 854 25.22 10.2 50.3 60 2.8 37.1 10.52 0.414
23:52 1024 30.24 854 25.22 10.3 50.6 60 2.9 37.2 10.63 0.419
23:53 1024 30.24 854 25.22 10.4 50.7 60 3 37.4 10.7 0.421
23:54 1024 30.24 854 25.22 10.4 50.7 60 3.1 37.5 10.73 0.422
23:55 1025 30.27 854 25.22 10.3 50.6 61 3.1 37.5 10.65 0.419
23:56 1025 30.27 854 25.22 10.2 50.3 61 3 37.3 10.58 0.417
23:57 1025 30.27 854 25.22 10.1 50.1 62 3.1 37.6 10.44 0.411
23:58 1025 30.27 854 25.22 9.8 49.7 63 3 37.5 10.23 0.403
23:59 1025 30.27 854 25.22 9.7 49.4 63 2.9 37.3 10.11 0.398
24:00 1025 30.27 854 25.22 9.6 49.3 64 3.2 37.8 9.98 0.393